SJX032 RCTP-KSEA
Flight info
| Callsign | SJX032 |
|---|---|
| Flight time | 10h 29m |
| Altitude | 33000 |
| Route | ROBIN1A ROBIN R583 BORDO Z29 GAKIA Y293 YULIA Y57 MOSLO/N0493F350 Y57 POROT Y809 IDLAN Y812 ADNAP OTR5 KALNA DCT 45N160E 50N170E/N0495F370 DCT EYETI DCT RADIC DCT 55N160W 56N150W/N0480F390 DCT PHINK DCT KATCH DCT YZT Q902 VIXOR MARNR8 |
| Aircraft | A359/H-SDE2E3GHIJ3J4J5LM1ORWXY/LB1D1 |
Departure
| Time | 2026-05-07 03:58 |
|---|---|
| Airport | Taiwan Taoyuan International Airport (RCTP) |
Arrival
| Time | 2026-05-07 14:27 |
|---|---|
| Airport | Seattle–Tacoma International Airport (KSEA) |
| Time | Latitude | Longitude | Altitude | Speed | Heading |
|---|---|---|---|---|---|
| 2026-05-07 03:45 | 25.07227 | 121.23317 | 107 ft | 0 kts | 319° |
| 2026-05-07 03:50 | 25.07226 | 121.23317 | 106 ft | 1 kts | 319° |
| 2026-05-07 03:51 | 25.07215 | 121.23328 | 105 ft | 3 kts | 319° |
| 2026-05-07 03:51 | 25.07199 | 121.23343 | 104 ft | 3 kts | 319° |
| 2026-05-07 03:51 | 25.07187 | 121.23355 | 104 ft | 3 kts | 317° |
| 2026-05-07 03:51 | 25.07174 | 121.23369 | 104 ft | 3 kts | 299° |
| 2026-05-07 03:52 | 25.07167 | 121.23386 | 104 ft | 3 kts | 272° |
| 2026-05-07 03:52 | 25.07168 | 121.23403 | 104 ft | 3 kts | 245° |
| 2026-05-07 03:52 | 25.07177 | 121.23421 | 104 ft | 3 kts | 230° |
| 2026-05-07 03:52 | 25.07181 | 121.23426 | 106 ft | 0 kts | 227° |
| 2026-05-07 03:53 | 25.07179 | 121.23423 | 106 ft | 2 kts | 227° |
| 2026-05-07 03:53 | 25.07159 | 121.23399 | 105 ft | 7 kts | 227° |
| 2026-05-07 03:54 | 25.07112 | 121.23342 | 106 ft | 13 kts | 227° |
| 2026-05-07 03:54 | 25.07041 | 121.23255 | 106 ft | 18 kts | 229° |
| 2026-05-07 03:54 | 25.06951 | 121.23141 | 104 ft | 21 kts | 230° |
| 2026-05-07 03:54 | 25.06853 | 121.23012 | 104 ft | 23 kts | 230° |
| 2026-05-07 03:55 | 25.06756 | 121.22886 | 105 ft | 22 kts | 230° |
| 2026-05-07 03:55 | 25.06652 | 121.22752 | 105 ft | 24 kts | 230° |
| 2026-05-07 03:55 | 25.06542 | 121.22609 | 105 ft | 25 kts | 229° |
| 2026-05-07 03:55 | 25.06441 | 121.22481 | 106 ft | 22 kts | 229° |
| 2026-05-07 03:56 | 25.06335 | 121.22351 | 106 ft | 21 kts | 218° |
| 2026-05-07 03:56 | 25.06196 | 121.22378 | 105 ft | 24 kts | 148° |
| 2026-05-07 03:56 | 25.06144 | 121.22424 | 104 ft | 0 kts | 120° |
| 2026-05-07 03:56 | 25.06143 | 121.22430 | 104 ft | 2 kts | 104° |
| 2026-05-07 03:57 | 25.06155 | 121.22450 | 105 ft | 6 kts | 50° |
| 2026-05-07 03:57 | 25.06266 | 121.22593 | 104 ft | 54 kts | 49° |
| 2026-05-07 03:57 | 25.06655 | 121.23079 | 100 ft | 113 kts | 49° |
| 2026-05-07 03:57 | 25.07290 | 121.23884 | 100 ft | 164 kts | 49° |
| 2026-05-07 03:58 | 25.08116 | 121.24909 | 458 ft | 181 kts | 46° |
| 2026-05-07 03:58 | 25.08919 | 121.25940 | 1242 ft | 178 kts | 47° |
| 2026-05-07 03:58 | 25.09752 | 121.27039 | 1519 ft | 194 kts | 48° |
| 2026-05-07 03:58 | 25.10651 | 121.28235 | 1691 ft | 211 kts | 49° |
| 2026-05-07 03:59 | 25.11627 | 121.29530 | 1932 ft | 226 kts | 49° |
| 2026-05-07 03:59 | 25.12731 | 121.30858 | 2159 ft | 244 kts | 45° |
| 2026-05-07 03:59 | 25.13962 | 121.32241 | 2334 ft | 261 kts | 45° |
| 2026-05-07 03:59 | 25.15259 | 121.33705 | 2709 ft | 270 kts | 45° |
| 2026-05-07 04:00 | 25.16578 | 121.35207 | 3201 ft | 274 kts | 45° |
| 2026-05-07 04:00 | 25.17911 | 121.36732 | 3692 ft | 278 kts | 46° |
| 2026-05-07 04:00 | 25.19260 | 121.38281 | 4199 ft | 280 kts | 46° |
| 2026-05-07 04:00 | 25.20613 | 121.39836 | 4720 ft | 283 kts | 46° |
| 2026-05-07 04:01 | 25.21989 | 121.41420 | 5126 ft | 288 kts | 46° |
| 2026-05-07 04:01 | 25.23380 | 121.43023 | 5603 ft | 291 kts | 46° |
| 2026-05-07 04:01 | 25.24787 | 121.44644 | 6090 ft | 294 kts | 46° |
| 2026-05-07 04:01 | 25.26210 | 121.46286 | 6564 ft | 297 kts | 45° |
| 2026-05-07 04:02 | 25.27537 | 121.48046 | 7008 ft | 301 kts | 59° |
| 2026-05-07 04:02 | 25.28286 | 121.50193 | 7515 ft | 301 kts | 77° |
| 2026-05-07 04:02 | 25.28739 | 121.52456 | 8034 ft | 303 kts | 79° |
| 2026-05-07 04:02 | 25.29164 | 121.54745 | 8569 ft | 306 kts | 79° |
| 2026-05-07 04:03 | 25.29601 | 121.57055 | 9110 ft | 309 kts | 78° |
| 2026-05-07 04:03 | 25.30041 | 121.59356 | 9636 ft | 312 kts | 78° |
| 2026-05-07 04:03 | 25.30501 | 121.61731 | 10128 ft | 315 kts | 78° |
| 2026-05-07 04:03 | 25.30963 | 121.64105 | 10350 ft | 328 kts | 78° |
| 2026-05-07 04:04 | 25.31460 | 121.66656 | 10582 ft | 340 kts | 78° |
| 2026-05-07 04:04 | 25.31966 | 121.69252 | 10823 ft | 352 kts | 78° |
| 2026-05-07 04:04 | 25.32485 | 121.71910 | 11057 ft | 362 kts | 78° |
| 2026-05-07 04:04 | 25.33023 | 121.74674 | 11274 ft | 373 kts | 78° |
| 2026-05-07 04:05 | 25.33581 | 121.77540 | 11492 ft | 383 kts | 78° |
| 2026-05-07 04:05 | 25.34141 | 121.80422 | 11707 ft | 392 kts | 78° |
| 2026-05-07 04:05 | 25.34716 | 121.83385 | 11988 ft | 397 kts | 77° |
| 2026-05-07 04:05 | 25.35298 | 121.86385 | 12341 ft | 401 kts | 77° |
| 2026-05-07 04:06 | 25.35882 | 121.89398 | 12707 ft | 404 kts | 77° |
| 2026-05-07 04:06 | 25.36472 | 121.92448 | 13076 ft | 406 kts | 77° |
| 2026-05-07 04:06 | 25.37063 | 121.95505 | 13437 ft | 409 kts | 77° |
| 2026-05-07 04:06 | 25.37658 | 121.98587 | 13792 ft | 411 kts | 77° |
| 2026-05-07 04:07 | 25.38256 | 122.01686 | 14106 ft | 413 kts | 77° |
| 2026-05-07 04:07 | 25.38855 | 122.04800 | 14430 ft | 415 kts | 77° |
| 2026-05-07 04:07 | 25.39456 | 122.07926 | 14741 ft | 417 kts | 77° |
| 2026-05-07 04:07 | 25.40061 | 122.11072 | 15059 ft | 418 kts | 77° |
| 2026-05-07 04:08 | 25.40667 | 122.14231 | 15366 ft | 420 kts | 77° |
| 2026-05-07 04:08 | 25.41271 | 122.17383 | 15692 ft | 422 kts | 77° |
| 2026-05-07 04:08 | 25.41914 | 122.20576 | 15992 ft | 424 kts | 75° |
| 2026-05-07 04:08 | 25.42744 | 122.23700 | 16312 ft | 425 kts | 71° |
| 2026-05-07 04:09 | 25.43714 | 122.26795 | 16613 ft | 427 kts | 69° |
| 2026-05-07 04:09 | 25.44751 | 122.29888 | 16935 ft | 429 kts | 68° |
| 2026-05-07 04:09 | 25.45801 | 122.32971 | 17238 ft | 431 kts | 69° |
| 2026-05-07 04:09 | 25.46852 | 122.36087 | 17549 ft | 432 kts | 69° |
| 2026-05-07 04:10 | 25.47890 | 122.39211 | 17847 ft | 434 kts | 69° |
| 2026-05-07 04:10 | 25.48921 | 122.42357 | 18158 ft | 436 kts | 69° |
| 2026-05-07 04:10 | 25.49949 | 122.45529 | 18410 ft | 438 kts | 69° |
| 2026-05-07 04:10 | 25.50979 | 122.48720 | 18664 ft | 440 kts | 70° |
| 2026-05-07 04:11 | 25.52027 | 122.51908 | 18910 ft | 442 kts | 69° |
| 2026-05-07 04:11 | 25.53105 | 122.55067 | 19178 ft | 444 kts | 68° |
| 2026-05-07 04:11 | 25.53852 | 122.57222 | 19333 ft | 446 kts | 68° |
| 2026-05-07 04:11 | 25.54968 | 122.60428 | 19590 ft | 447 kts | 68° |
| 2026-05-07 04:12 | 25.56448 | 122.64700 | 19940 ft | 450 kts | 68° |
| 2026-05-07 04:12 | 25.57562 | 122.67939 | 20199 ft | 451 kts | 68° |
| 2026-05-07 04:12 | 25.58678 | 122.71198 | 20457 ft | 453 kts | 68° |
| 2026-05-07 04:12 | 25.59433 | 122.73408 | 20624 ft | 455 kts | 68° |
| 2026-05-07 04:13 | 25.60552 | 122.76691 | 20899 ft | 456 kts | 68° |
| 2026-05-07 04:13 | 25.62038 | 122.81060 | 21246 ft | 459 kts | 68° |
| 2026-05-07 04:13 | 25.62803 | 122.83309 | 21433 ft | 460 kts | 68° |
| 2026-05-07 04:13 | 25.63928 | 122.86620 | 21715 ft | 462 kts | 68° |
| 2026-05-07 04:14 | 25.65054 | 122.89956 | 21990 ft | 463 kts | 68° |
| 2026-05-07 04:14 | 25.66181 | 122.93312 | 22268 ft | 465 kts | 68° |
| 2026-05-07 04:14 | 25.67297 | 122.96637 | 22545 ft | 467 kts | 68° |
| 2026-05-07 04:14 | 25.68432 | 123.00020 | 22818 ft | 469 kts | 68° |
| 2026-05-07 04:15 | 25.69559 | 123.03389 | 23101 ft | 470 kts | 68° |
| 2026-05-07 04:15 | 25.70710 | 123.06813 | 23393 ft | 471 kts | 68° |
| 2026-05-07 04:15 | 25.71856 | 123.10217 | 23643 ft | 473 kts | 68° |
| 2026-05-07 04:15 | 25.73011 | 123.13646 | 23857 ft | 475 kts | 68° |
| 2026-05-07 04:16 | 25.74167 | 123.17081 | 24067 ft | 477 kts | 68° |
| 2026-05-07 04:16 | 25.75327 | 123.20536 | 24289 ft | 479 kts | 68° |
| 2026-05-07 04:16 | 25.76494 | 123.24015 | 24532 ft | 481 kts | 68° |
| 2026-05-07 04:16 | 25.77659 | 123.27492 | 24775 ft | 483 kts | 68° |
| 2026-05-07 04:17 | 25.78831 | 123.30998 | 25024 ft | 485 kts | 68° |
| 2026-05-07 04:17 | 25.80005 | 123.34510 | 25288 ft | 487 kts | 68° |
| 2026-05-07 04:17 | 25.81183 | 123.38040 | 25552 ft | 489 kts | 68° |
| 2026-05-07 04:17 | 25.82369 | 123.41596 | 25834 ft | 491 kts | 68° |
| 2026-05-07 04:18 | 25.83555 | 123.45155 | 26079 ft | 494 kts | 68° |
| 2026-05-07 04:18 | 25.84746 | 123.48733 | 26348 ft | 496 kts | 68° |
| 2026-05-07 04:18 | 25.85942 | 123.52327 | 26610 ft | 498 kts | 68° |
| 2026-05-07 04:18 | 25.87147 | 123.55953 | 26869 ft | 500 kts | 68° |
| 2026-05-07 04:19 | 25.88349 | 123.59573 | 27131 ft | 503 kts | 68° |
| 2026-05-07 04:19 | 25.89565 | 123.63230 | 27396 ft | 505 kts | 68° |
| 2026-05-07 04:19 | 25.90781 | 123.66900 | 27653 ft | 507 kts | 68° |
| 2026-05-07 04:19 | 25.91984 | 123.70539 | 27779 ft | 511 kts | 69° |
| 2026-05-07 04:20 | 25.93229 | 123.74308 | 27858 ft | 517 kts | 69° |
| 2026-05-07 04:20 | 25.94451 | 123.78016 | 28124 ft | 518 kts | 69° |
| 2026-05-07 04:20 | 25.95691 | 123.81784 | 28392 ft | 520 kts | 69° |
| 2026-05-07 04:21 | 25.98181 | 123.89357 | 28898 ft | 524 kts | 69° |
| 2026-05-07 04:21 | 25.99434 | 123.93170 | 29104 ft | 526 kts | 69° |
| 2026-05-07 04:21 | 26.00693 | 123.96998 | 29348 ft | 528 kts | 68° |
| 2026-05-07 04:21 | 26.02184 | 124.00722 | 29538 ft | 528 kts | 59° |
| 2026-05-07 04:22 | 26.03997 | 124.04289 | 29760 ft | 529 kts | 57° |
| 2026-05-07 04:22 | 26.05874 | 124.07814 | 29966 ft | 531 kts | 57° |
| 2026-05-07 04:22 | 26.07788 | 124.11331 | 30136 ft | 533 kts | 56° |
| 2026-05-07 04:22 | 26.09721 | 124.14854 | 30316 ft | 534 kts | 56° |
| 2026-05-07 04:23 | 26.11659 | 124.18388 | 30502 ft | 535 kts | 56° |
| 2026-05-07 04:23 | 26.13593 | 124.21925 | 30691 ft | 536 kts | 56° |
| 2026-05-07 04:23 | 26.15524 | 124.25469 | 30866 ft | 537 kts | 56° |
| 2026-05-07 04:23 | 26.17460 | 124.29034 | 31111 ft | 537 kts | 56° |
| 2026-05-07 04:24 | 26.19385 | 124.32587 | 31390 ft | 535 kts | 56° |
| 2026-05-07 04:24 | 26.21300 | 124.36130 | 31648 ft | 534 kts | 56° |
| 2026-05-07 04:24 | 26.23216 | 124.39675 | 31896 ft | 533 kts | 56° |
| 2026-05-07 04:24 | 26.25122 | 124.43205 | 32142 ft | 533 kts | 56° |
| 2026-05-07 04:25 | 26.27034 | 124.46747 | 32394 ft | 532 kts | 56° |
| 2026-05-07 04:25 | 26.28938 | 124.50278 | 32627 ft | 531 kts | 56° |
| 2026-05-07 04:25 | 26.30838 | 124.53804 | 32852 ft | 530 kts | 56° |
| 2026-05-07 04:25 | 26.32736 | 124.57327 | 32974 ft | 532 kts | 56° |
| 2026-05-07 04:26 | 26.36571 | 124.64451 | 32982 ft | 537 kts | 56° |
| 2026-05-07 04:26 | 26.40403 | 124.71588 | 32983 ft | 536 kts | 56° |
| 2026-05-07 04:27 | 26.44231 | 124.78728 | 32983 ft | 537 kts | 56° |
| 2026-05-07 04:27 | 26.48060 | 124.85881 | 32986 ft | 537 kts | 56° |
| 2026-05-07 04:28 | 26.51887 | 124.93040 | 32982 ft | 537 kts | 57° |
| 2026-05-07 04:28 | 26.55700 | 125.00184 | 32983 ft | 537 kts | 57° |
| 2026-05-07 04:29 | 26.59524 | 125.07361 | 32985 ft | 537 kts | 57° |
| 2026-05-07 04:29 | 26.63348 | 125.14551 | 32984 ft | 537 kts | 57° |
| 2026-05-07 04:30 | 26.67159 | 125.21725 | 32984 ft | 538 kts | 57° |
| 2026-05-07 04:30 | 26.70975 | 125.28922 | 32987 ft | 538 kts | 57° |
| 2026-05-07 04:31 | 26.74787 | 125.36123 | 32990 ft | 538 kts | 57° |
| 2026-05-07 04:31 | 26.78596 | 125.43330 | 32988 ft | 538 kts | 57° |
| 2026-05-07 04:32 | 26.82371 | 125.50485 | 32986 ft | 538 kts | 57° |
| 2026-05-07 04:32 | 26.86180 | 125.57716 | 32988 ft | 538 kts | 57° |
| 2026-05-07 04:33 | 26.89977 | 125.64935 | 32984 ft | 538 kts | 57° |
| 2026-05-07 04:33 | 26.93779 | 125.72176 | 32989 ft | 538 kts | 57° |
| 2026-05-07 04:34 | 26.97568 | 125.79404 | 32985 ft | 538 kts | 57° |
| 2026-05-07 04:34 | 27.01361 | 125.86651 | 32989 ft | 539 kts | 57° |
| 2026-05-07 04:35 | 27.05150 | 125.93903 | 32988 ft | 539 kts | 57° |
| 2026-05-07 04:35 | 27.08953 | 126.01149 | 32988 ft | 539 kts | 57° |
| 2026-05-07 04:36 | 27.12761 | 126.08409 | 32990 ft | 539 kts | 57° |
| 2026-05-07 04:36 | 27.16560 | 126.15670 | 32992 ft | 539 kts | 57° |
| 2026-05-07 04:37 | 27.20348 | 126.22929 | 32992 ft | 540 kts | 57° |
| 2026-05-07 04:37 | 27.24142 | 126.30212 | 32991 ft | 540 kts | 57° |
| 2026-05-07 04:38 | 27.27935 | 126.37505 | 32989 ft | 540 kts | 57° |
| 2026-05-07 04:38 | 27.31726 | 126.44806 | 32993 ft | 540 kts | 57° |
| 2026-05-07 04:39 | 27.35509 | 126.52104 | 32984 ft | 540 kts | 57° |
| 2026-05-07 04:39 | 27.39266 | 126.59363 | 32984 ft | 540 kts | 57° |
| 2026-05-07 04:40 | 27.43045 | 126.66679 | 32985 ft | 541 kts | 57° |
| 2026-05-07 04:40 | 27.46807 | 126.73972 | 32986 ft | 541 kts | 57° |
| 2026-05-07 04:41 | 27.50581 | 126.81304 | 32986 ft | 540 kts | 57° |
| 2026-05-07 04:41 | 27.54354 | 126.88644 | 32991 ft | 540 kts | 57° |
| 2026-05-07 04:42 | 27.58113 | 126.95968 | 32990 ft | 540 kts | 57° |
| 2026-05-07 04:42 | 27.61863 | 127.03289 | 32992 ft | 540 kts | 57° |
| 2026-05-07 04:43 | 27.65632 | 127.10661 | 32989 ft | 540 kts | 57° |
| 2026-05-07 04:43 | 27.69374 | 127.17990 | 32989 ft | 540 kts | 57° |
| 2026-05-07 04:44 | 27.73120 | 127.25341 | 32988 ft | 540 kts | 57° |
| 2026-05-07 04:44 | 27.76860 | 127.32693 | 32986 ft | 540 kts | 57° |
| 2026-05-07 04:45 | 27.80599 | 127.40056 | 32990 ft | 540 kts | 57° |
| 2026-05-07 04:45 | 27.84290 | 127.47461 | 32986 ft | 541 kts | 59° |
| 2026-05-07 04:46 | 27.87859 | 127.54960 | 32989 ft | 541 kts | 59° |
| 2026-05-07 04:46 | 27.91389 | 127.62408 | 32987 ft | 541 kts | 59° |
| 2026-05-07 04:47 | 27.94977 | 127.69940 | 32989 ft | 541 kts | 59° |
| 2026-05-07 04:47 | 27.98552 | 127.77430 | 32990 ft | 541 kts | 59° |
| 2026-05-07 04:48 | 28.02100 | 127.84873 | 32984 ft | 541 kts | 59° |
| 2026-05-07 04:48 | 28.05663 | 127.92365 | 32986 ft | 541 kts | 59° |
| 2026-05-07 04:49 | 28.09233 | 127.99882 | 32987 ft | 541 kts | 59° |
| 2026-05-07 04:49 | 28.12794 | 128.07399 | 32984 ft | 541 kts | 59° |
| 2026-05-07 04:50 | 28.16342 | 128.14900 | 32983 ft | 541 kts | 59° |
| 2026-05-07 04:50 | 28.19901 | 128.22438 | 32989 ft | 541 kts | 59° |
| 2026-05-07 04:51 | 28.23443 | 128.29953 | 32974 ft | 542 kts | 59° |
| 2026-05-07 04:51 | 28.26993 | 128.37500 | 32992 ft | 542 kts | 59° |
| 2026-05-07 04:52 | 28.30533 | 128.45040 | 32981 ft | 542 kts | 59° |
| 2026-05-07 04:52 | 28.34080 | 128.52608 | 32990 ft | 542 kts | 59° |
| 2026-05-07 04:53 | 28.37616 | 128.60165 | 32985 ft | 543 kts | 59° |
| 2026-05-07 04:53 | 28.41153 | 128.67740 | 32984 ft | 543 kts | 59° |
| 2026-05-07 04:54 | 28.44688 | 128.75325 | 32979 ft | 543 kts | 59° |
| 2026-05-07 04:54 | 28.48212 | 128.82900 | 32983 ft | 543 kts | 59° |
| 2026-05-07 04:55 | 28.51742 | 128.90502 | 32978 ft | 543 kts | 59° |
| 2026-05-07 04:55 | 28.55256 | 128.98083 | 32973 ft | 543 kts | 59° |
| 2026-05-07 04:56 | 28.58776 | 129.05691 | 32973 ft | 543 kts | 59° |
| 2026-05-07 04:56 | 28.62289 | 129.13298 | 32975 ft | 543 kts | 59° |
| 2026-05-07 04:57 | 28.65772 | 129.20857 | 32980 ft | 543 kts | 59° |
| 2026-05-07 04:57 | 28.69291 | 129.28506 | 32979 ft | 542 kts | 60° |
| 2026-05-07 04:58 | 28.72768 | 129.36078 | 32978 ft | 542 kts | 60° |
| 2026-05-07 04:58 | 28.76247 | 129.43669 | 32974 ft | 541 kts | 60° |
| 2026-05-07 04:59 | 28.79733 | 129.51290 | 32976 ft | 541 kts | 60° |
| 2026-05-07 04:59 | 28.83206 | 129.58896 | 32970 ft | 541 kts | 60° |
| 2026-05-07 05:00 | 28.86667 | 129.66491 | 32974 ft | 540 kts | 60° |
| 2026-05-07 05:00 | 28.89572 | 129.72877 | 32972 ft | 540 kts | 60° |
| 2026-05-07 05:01 | 28.93009 | 129.80446 | 32971 ft | 540 kts | 60° |
| 2026-05-07 05:01 | 28.96464 | 129.88067 | 32971 ft | 540 kts | 60° |
| 2026-05-07 05:02 | 28.99913 | 129.95692 | 32975 ft | 541 kts | 60° |
| 2026-05-07 05:02 | 29.03363 | 130.03332 | 32975 ft | 541 kts | 60° |
| 2026-05-07 05:03 | 29.06806 | 130.10972 | 32974 ft | 541 kts | 60° |
| 2026-05-07 05:03 | 29.10261 | 130.18653 | 32969 ft | 541 kts | 60° |
| 2026-05-07 05:04 | 29.13680 | 130.26270 | 32970 ft | 541 kts | 60° |
| 2026-05-07 05:04 | 29.17109 | 130.33923 | 32968 ft | 540 kts | 60° |
| 2026-05-07 05:05 | 29.20535 | 130.41584 | 32968 ft | 540 kts | 61° |
| 2026-05-07 05:05 | 29.23975 | 130.49293 | 32963 ft | 540 kts | 61° |
| 2026-05-07 05:06 | 29.27363 | 130.56899 | 32967 ft | 540 kts | 61° |
| 2026-05-07 05:06 | 29.30777 | 130.64577 | 32968 ft | 540 kts | 61° |
| 2026-05-07 05:07 | 29.34177 | 130.72241 | 32970 ft | 540 kts | 61° |
| 2026-05-07 05:07 | 29.37564 | 130.79888 | 32973 ft | 540 kts | 61° |
| 2026-05-07 05:08 | 29.40971 | 130.87596 | 32971 ft | 540 kts | 61° |
| 2026-05-07 05:08 | 29.44358 | 130.95275 | 32981 ft | 540 kts | 61° |
| 2026-05-07 05:09 | 29.47735 | 131.02945 | 32983 ft | 539 kts | 61° |
| 2026-05-07 05:09 | 29.51119 | 131.10648 | 32979 ft | 539 kts | 61° |
| 2026-05-07 05:10 | 29.54488 | 131.18329 | 32984 ft | 538 kts | 61° |
| 2026-05-07 05:10 | 29.57852 | 131.26018 | 32983 ft | 538 kts | 61° |
| 2026-05-07 05:11 | 29.61207 | 131.33698 | 32983 ft | 537 kts | 61° |
| 2026-05-07 05:11 | 29.64545 | 131.41355 | 32981 ft | 536 kts | 61° |
| 2026-05-07 05:12 | 29.67887 | 131.49038 | 32966 ft | 536 kts | 61° |
| 2026-05-07 05:12 | 29.71209 | 131.56688 | 32980 ft | 535 kts | 61° |
| 2026-05-07 05:13 | 29.74530 | 131.64351 | 32983 ft | 535 kts | 61° |
| 2026-05-07 05:13 | 29.77833 | 131.71989 | 32968 ft | 534 kts | 61° |
| 2026-05-07 05:14 | 29.81174 | 131.79657 | 32971 ft | 533 kts | 58° |
| 2026-05-07 05:14 | 29.85169 | 131.86783 | 32975 ft | 530 kts | 53° |
| 2026-05-07 05:15 | 29.89377 | 131.93767 | 32977 ft | 529 kts | 52° |
| 2026-05-07 05:15 | 29.93573 | 132.00670 | 32976 ft | 529 kts | 52° |
| 2026-05-07 05:16 | 29.97804 | 132.07667 | 32977 ft | 529 kts | 53° |
| 2026-05-07 05:16 | 30.01999 | 132.14642 | 32974 ft | 529 kts | 53° |
| 2026-05-07 05:17 | 30.06187 | 132.21622 | 32973 ft | 528 kts | 53° |
| 2026-05-07 05:17 | 30.10363 | 132.28594 | 32971 ft | 528 kts | 53° |
| 2026-05-07 05:18 | 30.14538 | 132.35575 | 32971 ft | 528 kts | 53° |
| 2026-05-07 05:18 | 30.18701 | 132.42548 | 32971 ft | 527 kts | 53° |
| 2026-05-07 05:19 | 30.22864 | 132.49533 | 32969 ft | 527 kts | 53° |
| 2026-05-07 05:19 | 30.26981 | 132.56454 | 32972 ft | 526 kts | 53° |
| 2026-05-07 05:20 | 30.31131 | 132.63442 | 32966 ft | 526 kts | 53° |
| 2026-05-07 05:20 | 30.35272 | 132.70425 | 32965 ft | 526 kts | 53° |
| 2026-05-07 05:21 | 30.41465 | 132.80894 | 32967 ft | 525 kts | 53° |
| 2026-05-07 05:22 | 30.45586 | 132.87875 | 32973 ft | 525 kts | 53° |
| 2026-05-07 05:22 | 30.49709 | 132.94871 | 32967 ft | 525 kts | 53° |
| 2026-05-07 05:23 | 30.53828 | 133.01874 | 32967 ft | 524 kts | 53° |
| 2026-05-07 05:23 | 30.57925 | 133.08850 | 32966 ft | 524 kts | 53° |
| 2026-05-07 05:24 | 30.62020 | 133.15836 | 32967 ft | 524 kts | 53° |
| 2026-05-07 05:24 | 30.66113 | 133.22832 | 32971 ft | 523 kts | 53° |
| 2026-05-07 05:25 | 30.70198 | 133.29824 | 32961 ft | 522 kts | 53° |
| 2026-05-07 05:25 | 30.74280 | 133.36824 | 32964 ft | 522 kts | 53° |
| 2026-05-07 05:26 | 30.78334 | 133.43789 | 32966 ft | 522 kts | 53° |
| 2026-05-07 05:26 | 30.82398 | 133.50785 | 32966 ft | 521 kts | 53° |
| 2026-05-07 05:27 | 30.86455 | 133.57779 | 32966 ft | 520 kts | 53° |
| 2026-05-07 05:27 | 30.90473 | 133.64719 | 32967 ft | 520 kts | 53° |
| 2026-05-07 05:28 | 30.94530 | 133.71732 | 32968 ft | 519 kts | 53° |
| 2026-05-07 05:28 | 30.98557 | 133.78707 | 32971 ft | 518 kts | 54° |
| 2026-05-07 05:29 | 31.02572 | 133.85676 | 32972 ft | 517 kts | 53° |
| 2026-05-07 05:29 | 31.06579 | 133.92643 | 32973 ft | 517 kts | 53° |
| 2026-05-07 05:30 | 31.10544 | 133.99547 | 32974 ft | 516 kts | 54° |
| 2026-05-07 05:30 | 31.14541 | 134.06521 | 32972 ft | 516 kts | 54° |
| 2026-05-07 05:31 | 31.18523 | 134.13479 | 32968 ft | 515 kts | 54° |
| 2026-05-07 05:31 | 31.22488 | 134.20422 | 32970 ft | 515 kts | 54° |
| 2026-05-07 05:32 | 31.26447 | 134.27364 | 32972 ft | 514 kts | 54° |
| 2026-05-07 05:32 | 31.30421 | 134.34346 | 32982 ft | 514 kts | 54° |
| 2026-05-07 05:33 | 31.34374 | 134.41306 | 32970 ft | 513 kts | 54° |
| 2026-05-07 05:33 | 31.38319 | 134.48259 | 32975 ft | 513 kts | 54° |
| 2026-05-07 05:34 | 31.42261 | 134.55223 | 32975 ft | 513 kts | 54° |
| 2026-05-07 05:34 | 31.46199 | 134.62192 | 32975 ft | 513 kts | 54° |
| 2026-05-07 05:35 | 31.50143 | 134.69182 | 32974 ft | 514 kts | 54° |
| 2026-05-07 05:35 | 31.54080 | 134.76176 | 32974 ft | 514 kts | 54° |
| 2026-05-07 05:36 | 31.58006 | 134.83162 | 32972 ft | 514 kts | 54° |
| 2026-05-07 05:36 | 31.61949 | 134.90189 | 32979 ft | 515 kts | 55° |
| 2026-05-07 05:37 | 31.65885 | 134.97218 | 32976 ft | 516 kts | 55° |
| 2026-05-07 05:37 | 31.69828 | 135.04273 | 32973 ft | 517 kts | 55° |
| 2026-05-07 05:38 | 31.74240 | 135.10918 | 32975 ft | 516 kts | 47° |
| 2026-05-07 05:38 | 31.79031 | 135.17236 | 32977 ft | 519 kts | 46° |
| 2026-05-07 05:39 | 31.83889 | 135.23530 | 32974 ft | 521 kts | 46° |
| 2026-05-07 05:39 | 31.88753 | 135.29851 | 32975 ft | 522 kts | 47° |
| 2026-05-07 05:40 | 31.93624 | 135.36215 | 32975 ft | 524 kts | 47° |
| 2026-05-07 05:40 | 31.98514 | 135.42622 | 32974 ft | 526 kts | 47° |
| 2026-05-07 05:41 | 32.03403 | 135.49042 | 32978 ft | 528 kts | 47° |
| 2026-05-07 05:41 | 32.08317 | 135.55504 | 32979 ft | 529 kts | 48° |
| 2026-05-07 05:42 | 32.13228 | 135.61971 | 32978 ft | 531 kts | 48° |
| 2026-05-07 05:42 | 32.18154 | 135.68472 | 32977 ft | 532 kts | 48° |
| 2026-05-07 05:43 | 32.23095 | 135.75002 | 32977 ft | 534 kts | 48° |
| 2026-05-07 05:43 | 32.28042 | 135.81553 | 32978 ft | 535 kts | 49° |
| 2026-05-07 05:44 | 32.32965 | 135.88084 | 32980 ft | 536 kts | 49° |
| 2026-05-07 05:44 | 32.37924 | 135.94674 | 32975 ft | 536 kts | 49° |
| 2026-05-07 05:45 | 32.42793 | 136.01373 | 32977 ft | 536 kts | 55° |
| 2026-05-07 05:45 | 32.46292 | 136.07491 | 32978 ft | 536 kts | 58° |
| 2026-05-07 05:46 | 32.50307 | 136.14885 | 32978 ft | 537 kts | 59° |
| 2026-05-07 05:46 | 32.54310 | 136.22348 | 32978 ft | 537 kts | 59° |
| 2026-05-07 05:47 | 32.58319 | 136.29816 | 32978 ft | 537 kts | 59° |
| 2026-05-07 05:47 | 32.62332 | 136.37285 | 32977 ft | 537 kts | 58° |
| 2026-05-07 05:48 | 32.66348 | 136.44767 | 32975 ft | 537 kts | 59° |
| 2026-05-07 05:48 | 32.70352 | 136.52242 | 32973 ft | 536 kts | 59° |
| 2026-05-07 05:49 | 32.74349 | 136.59720 | 32975 ft | 536 kts | 59° |
| 2026-05-07 05:49 | 32.78341 | 136.67205 | 32976 ft | 536 kts | 59° |
| 2026-05-07 05:50 | 32.82331 | 136.74701 | 32974 ft | 536 kts | 59° |
| 2026-05-07 05:50 | 32.86319 | 136.82207 | 32976 ft | 536 kts | 59° |
| 2026-05-07 05:51 | 32.90294 | 136.89704 | 32980 ft | 537 kts | 59° |
| 2026-05-07 05:51 | 32.94270 | 136.97219 | 32976 ft | 536 kts | 59° |
| 2026-05-07 05:52 | 32.98248 | 137.04751 | 32980 ft | 537 kts | 59° |
| 2026-05-07 05:52 | 33.02217 | 137.12283 | 32976 ft | 537 kts | 59° |
| 2026-05-07 05:53 | 33.06178 | 137.19816 | 32977 ft | 537 kts | 59° |
| 2026-05-07 05:53 | 33.10140 | 137.27366 | 32978 ft | 537 kts | 59° |
| 2026-05-07 05:54 | 33.14102 | 137.34930 | 32978 ft | 538 kts | 59° |
| 2026-05-07 05:54 | 33.18054 | 137.42492 | 32977 ft | 538 kts | 59° |
| 2026-05-07 05:55 | 33.22012 | 137.50091 | 32974 ft | 538 kts | 59° |
| 2026-05-07 05:55 | 33.25968 | 137.57675 | 32974 ft | 538 kts | 59° |
| 2026-05-07 05:56 | 33.29926 | 137.65280 | 32975 ft | 539 kts | 60° |
| 2026-05-07 05:56 | 33.33879 | 137.72896 | 32973 ft | 539 kts | 60° |
| 2026-05-07 05:57 | 33.37831 | 137.80530 | 32977 ft | 540 kts | 60° |
| 2026-05-07 05:57 | 33.41787 | 137.88188 | 32975 ft | 541 kts | 60° |
| 2026-05-07 05:58 | 33.45707 | 137.95802 | 32971 ft | 541 kts | 60° |
| 2026-05-07 05:58 | 33.49660 | 138.03482 | 32975 ft | 542 kts | 60° |
| 2026-05-07 05:59 | 33.53612 | 138.11170 | 33165 ft | 541 kts | 60° |
| 2026-05-07 05:59 | 33.55575 | 138.15007 | 33436 ft | 540 kts | 60° |
| 2026-05-07 05:59 | 33.57535 | 138.18835 | 33691 ft | 540 kts | 60° |
| 2026-05-07 05:59 | 33.59507 | 138.22684 | 33927 ft | 539 kts | 60° |
| 2026-05-07 06:00 | 33.61465 | 138.26510 | 34119 ft | 539 kts | 60° |
| 2026-05-07 06:00 | 33.63426 | 138.30348 | 34293 ft | 538 kts | 60° |
| 2026-05-07 06:00 | 33.65382 | 138.34178 | 34462 ft | 538 kts | 59° |
| 2026-05-07 06:00 | 33.67321 | 138.37984 | 34617 ft | 538 kts | 59° |
| 2026-05-07 06:01 | 33.69283 | 138.41837 | 34803 ft | 538 kts | 59° |
| 2026-05-07 06:01 | 33.71233 | 138.45671 | 34933 ft | 539 kts | 59° |
| 2026-05-07 06:01 | 33.73195 | 138.49534 | 34975 ft | 542 kts | 59° |
| 2026-05-07 06:02 | 33.77123 | 138.57291 | 34944 ft | 544 kts | 59° |
| 2026-05-07 06:02 | 33.81061 | 138.65064 | 34972 ft | 544 kts | 59° |
| 2026-05-07 06:03 | 33.84984 | 138.72823 | 34953 ft | 544 kts | 59° |
| 2026-05-07 06:03 | 33.88917 | 138.80624 | 34975 ft | 544 kts | 59° |
| 2026-05-07 06:04 | 33.92826 | 138.88395 | 34955 ft | 544 kts | 59° |
| 2026-05-07 06:04 | 33.96745 | 138.96203 | 34974 ft | 544 kts | 59° |
| 2026-05-07 06:05 | 34.00658 | 139.04018 | 34955 ft | 544 kts | 59° |
| 2026-05-07 06:05 | 34.04556 | 139.11820 | 34957 ft | 545 kts | 59° |
| 2026-05-07 06:06 | 34.08464 | 139.19656 | 34974 ft | 545 kts | 59° |
| 2026-05-07 06:06 | 34.12377 | 139.27523 | 34951 ft | 545 kts | 59° |
| 2026-05-07 06:07 | 34.16268 | 139.35373 | 34968 ft | 546 kts | 59° |
| 2026-05-07 06:07 | 34.20172 | 139.43246 | 34968 ft | 546 kts | 59° |
| 2026-05-07 06:08 | 34.24042 | 139.51068 | 34967 ft | 546 kts | 59° |
| 2026-05-07 06:08 | 34.27962 | 139.59012 | 34970 ft | 547 kts | 59° |
| 2026-05-07 06:09 | 34.31825 | 139.66861 | 34950 ft | 547 kts | 59° |
| 2026-05-07 06:09 | 34.35713 | 139.74777 | 34972 ft | 548 kts | 59° |
| 2026-05-07 06:10 | 34.39605 | 139.82719 | 34950 ft | 548 kts | 59° |
| 2026-05-07 06:10 | 34.43493 | 139.90673 | 34945 ft | 549 kts | 60° |
| 2026-05-07 06:11 | 34.47374 | 139.98630 | 34940 ft | 550 kts | 60° |
| 2026-05-07 06:11 | 34.51263 | 140.06621 | 34957 ft | 550 kts | 60° |
| 2026-05-07 06:12 | 34.55143 | 140.14611 | 34941 ft | 550 kts | 60° |
| 2026-05-07 06:12 | 34.59029 | 140.22630 | 34943 ft | 551 kts | 60° |
| 2026-05-07 06:13 | 34.62899 | 140.30638 | 34945 ft | 551 kts | 60° |
| 2026-05-07 06:13 | 34.66775 | 140.38675 | 34951 ft | 551 kts | 60° |
| 2026-05-07 06:14 | 34.70647 | 140.46727 | 34963 ft | 552 kts | 60° |
| 2026-05-07 06:14 | 34.74423 | 140.54858 | 34961 ft | 553 kts | 61° |
| 2026-05-07 06:15 | 34.78139 | 140.63028 | 34942 ft | 554 kts | 61° |
| 2026-05-07 06:15 | 34.81883 | 140.71238 | 34945 ft | 554 kts | 61° |
| 2026-05-07 06:16 | 34.85628 | 140.79431 | 34948 ft | 555 kts | 61° |
| 2026-05-07 06:16 | 34.89381 | 140.87648 | 34953 ft | 555 kts | 61° |
| 2026-05-07 06:17 | 34.93129 | 140.95877 | 34954 ft | 556 kts | 61° |
| 2026-05-07 06:17 | 34.96874 | 141.04119 | 34954 ft | 556 kts | 61° |
| 2026-05-07 06:18 | 35.00618 | 141.12381 | 34960 ft | 557 kts | 61° |
| 2026-05-07 06:18 | 35.04355 | 141.20645 | 34965 ft | 557 kts | 61° |
| 2026-05-07 06:19 | 35.08094 | 141.28932 | 34966 ft | 557 kts | 61° |
| 2026-05-07 06:19 | 35.11813 | 141.37196 | 34965 ft | 557 kts | 61° |
| 2026-05-07 06:20 | 35.15549 | 141.45520 | 34965 ft | 557 kts | 61° |
| 2026-05-07 06:20 | 35.19248 | 141.53779 | 34970 ft | 558 kts | 61° |
| 2026-05-07 06:21 | 35.22987 | 141.62150 | 34971 ft | 558 kts | 61° |
| 2026-05-07 06:21 | 35.26699 | 141.70480 | 34970 ft | 558 kts | 61° |
| 2026-05-07 06:22 | 35.30419 | 141.78849 | 34968 ft | 559 kts | 61° |
| 2026-05-07 06:22 | 35.35958 | 141.91349 | 34972 ft | 559 kts | 61° |
| 2026-05-07 06:23 | 35.39663 | 141.99735 | 34969 ft | 560 kts | 61° |
| 2026-05-07 06:23 | 35.43355 | 142.08112 | 34984 ft | 560 kts | 61° |
| 2026-05-07 06:24 | 35.47060 | 142.16541 | 34979 ft | 560 kts | 61° |
| 2026-05-07 06:24 | 35.50752 | 142.24960 | 34978 ft | 561 kts | 61° |
| 2026-05-07 06:25 | 35.54445 | 142.33403 | 34984 ft | 561 kts | 60° |
| 2026-05-07 06:25 | 35.58133 | 142.41856 | 34982 ft | 562 kts | 60° |
| 2026-05-07 06:26 | 35.61820 | 142.50329 | 34981 ft | 562 kts | 60° |
| 2026-05-07 06:26 | 35.65503 | 142.58812 | 34985 ft | 562 kts | 61° |
| 2026-05-07 06:27 | 35.69180 | 142.67305 | 34985 ft | 563 kts | 61° |
| 2026-05-07 06:27 | 35.72853 | 142.75808 | 34986 ft | 563 kts | 61° |
| 2026-05-07 06:28 | 35.76509 | 142.84295 | 34992 ft | 563 kts | 61° |
| 2026-05-07 06:28 | 35.80186 | 142.92854 | 34991 ft | 563 kts | 61° |
| 2026-05-07 06:29 | 35.83843 | 143.01385 | 34989 ft | 563 kts | 61° |
| 2026-05-07 06:29 | 35.87494 | 143.09926 | 34992 ft | 563 kts | 61° |
| 2026-05-07 06:30 | 35.90525 | 143.17033 | 34992 ft | 563 kts | 61° |
| 2026-05-07 06:30 | 35.93213 | 143.26090 | 34995 ft | 562 kts | 81° |
| 2026-05-07 06:31 | 35.94409 | 143.35623 | 34994 ft | 563 kts | 84° |
| 2026-05-07 06:31 | 35.95363 | 143.45208 | 34996 ft | 563 kts | 84° |
| 2026-05-07 06:32 | 35.96298 | 143.54798 | 34997 ft | 563 kts | 84° |
| 2026-05-07 06:32 | 35.97257 | 143.64385 | 34999 ft | 563 kts | 84° |
| 2026-05-07 06:33 | 35.98220 | 143.73975 | 35003 ft | 563 kts | 84° |
| 2026-05-07 06:33 | 35.99178 | 143.83565 | 34998 ft | 563 kts | 84° |
| 2026-05-07 06:34 | 36.00128 | 143.93158 | 35003 ft | 563 kts | 84° |
| 2026-05-07 06:34 | 36.01160 | 144.02677 | 35006 ft | 564 kts | 78° |
| 2026-05-07 06:35 | 36.02270 | 144.07376 | 35006 ft | 562 kts | 67° |
| 2026-05-07 06:35 | 36.04001 | 144.11682 | 35013 ft | 559 kts | 55° |
| 2026-05-07 06:35 | 36.08879 | 144.19035 | 35007 ft | 553 kts | 43° |
| 2026-05-07 06:36 | 36.14183 | 144.25915 | 35006 ft | 552 kts | 42° |
| 2026-05-07 06:36 | 36.19481 | 144.32715 | 35006 ft | 551 kts | 43° |
| 2026-05-07 06:37 | 36.24786 | 144.39613 | 35009 ft | 549 kts | 43° |
| 2026-05-07 06:37 | 36.29997 | 144.46449 | 35008 ft | 548 kts | 44° |
| 2026-05-07 06:38 | 36.35243 | 144.53357 | 35010 ft | 546 kts | 44° |
| 2026-05-07 06:38 | 36.40409 | 144.60173 | 35009 ft | 545 kts | 44° |
| 2026-05-07 06:39 | 36.45587 | 144.67015 | 35008 ft | 544 kts | 44° |
| 2026-05-07 06:39 | 36.50767 | 144.73873 | 35010 ft | 543 kts | 44° |
| 2026-05-07 06:40 | 36.55922 | 144.80712 | 35008 ft | 542 kts | 44° |
| 2026-05-07 06:40 | 36.61083 | 144.87574 | 35010 ft | 541 kts | 44° |
| 2026-05-07 06:41 | 36.66217 | 144.94415 | 35005 ft | 541 kts | 44° |
| 2026-05-07 06:41 | 36.71351 | 145.01270 | 34998 ft | 540 kts | 44° |
| 2026-05-07 06:42 | 36.76463 | 145.08109 | 35010 ft | 539 kts | 44° |
| 2026-05-07 06:42 | 36.81568 | 145.14954 | 35002 ft | 539 kts | 44° |
| 2026-05-07 06:43 | 36.86677 | 145.21819 | 35004 ft | 539 kts | 44° |
| 2026-05-07 06:43 | 36.91769 | 145.28675 | 35003 ft | 539 kts | 44° |
| 2026-05-07 06:44 | 36.96863 | 145.35548 | 35009 ft | 539 kts | 44° |
| 2026-05-07 06:44 | 37.01953 | 145.42432 | 35006 ft | 539 kts | 44° |
| 2026-05-07 06:45 | 37.07034 | 145.49317 | 35009 ft | 539 kts | 44° |
| 2026-05-07 06:45 | 37.12111 | 145.56210 | 35010 ft | 539 kts | 44° |
| 2026-05-07 06:46 | 37.17193 | 145.63126 | 35012 ft | 539 kts | 44° |
| 2026-05-07 06:46 | 37.21738 | 145.70616 | 35014 ft | 542 kts | 54° |
| 2026-05-07 06:47 | 37.25803 | 145.78607 | 35010 ft | 543 kts | 56° |
| 2026-05-07 06:47 | 37.29789 | 145.86654 | 35013 ft | 543 kts | 56° |
| 2026-05-07 06:48 | 37.33775 | 145.94712 | 35016 ft | 543 kts | 56° |
| 2026-05-07 06:48 | 37.37768 | 146.02772 | 35018 ft | 543 kts | 56° |
| 2026-05-07 06:49 | 37.41760 | 146.10837 | 35023 ft | 543 kts | 56° |
| 2026-05-07 06:49 | 37.45746 | 146.18908 | 35023 ft | 543 kts | 56° |
| 2026-05-07 06:50 | 37.49732 | 146.26998 | 35026 ft | 544 kts | 56° |
| 2026-05-07 06:50 | 37.53685 | 146.35044 | 35028 ft | 544 kts | 56° |
| 2026-05-07 06:51 | 37.57660 | 146.43154 | 35030 ft | 544 kts | 56° |
| 2026-05-07 06:51 | 37.61654 | 146.51324 | 35036 ft | 544 kts | 56° |
| 2026-05-07 06:52 | 37.65595 | 146.59404 | 35030 ft | 544 kts | 56° |
| 2026-05-07 06:52 | 37.69562 | 146.67557 | 35034 ft | 544 kts | 56° |
| 2026-05-07 06:53 | 37.73516 | 146.75705 | 35039 ft | 545 kts | 56° |
| 2026-05-07 06:53 | 37.77463 | 146.83858 | 35039 ft | 545 kts | 56° |
| 2026-05-07 06:54 | 37.81418 | 146.92048 | 35039 ft | 545 kts | 56° |
| 2026-05-07 06:54 | 37.85364 | 147.00239 | 35045 ft | 546 kts | 56° |
| 2026-05-07 06:55 | 37.89306 | 147.08444 | 35046 ft | 546 kts | 56° |
| 2026-05-07 06:55 | 37.93246 | 147.16666 | 35046 ft | 546 kts | 56° |
| 2026-05-07 06:56 | 37.97183 | 147.24899 | 35048 ft | 546 kts | 57° |
| 2026-05-07 06:56 | 38.01111 | 147.33138 | 35052 ft | 546 kts | 57° |
| 2026-05-07 06:57 | 38.05036 | 147.41389 | 35054 ft | 546 kts | 57° |
| 2026-05-07 06:57 | 38.08955 | 147.49649 | 35054 ft | 547 kts | 57° |
| 2026-05-07 06:58 | 38.12874 | 147.57931 | 35057 ft | 547 kts | 57° |
| 2026-05-07 06:58 | 38.16788 | 147.66223 | 35060 ft | 547 kts | 57° |
| 2026-05-07 06:59 | 38.20690 | 147.74512 | 35060 ft | 547 kts | 57° |
| 2026-05-07 06:59 | 38.24589 | 147.82813 | 35064 ft | 547 kts | 57° |
| 2026-05-07 07:00 | 38.28493 | 147.91148 | 35061 ft | 548 kts | 57° |
| 2026-05-07 07:00 | 38.32388 | 147.99484 | 35063 ft | 548 kts | 57° |
| 2026-05-07 07:01 | 38.36277 | 148.07830 | 35068 ft | 548 kts | 57° |
| 2026-05-07 07:01 | 38.40160 | 148.16186 | 35068 ft | 548 kts | 57° |
| 2026-05-07 07:02 | 38.44042 | 148.24561 | 35071 ft | 549 kts | 57° |
| 2026-05-07 07:02 | 38.47924 | 148.32957 | 35071 ft | 549 kts | 57° |
| 2026-05-07 07:03 | 38.51796 | 148.41353 | 35077 ft | 549 kts | 57° |
| 2026-05-07 07:03 | 38.55665 | 148.49766 | 35072 ft | 549 kts | 57° |
| 2026-05-07 07:04 | 38.59525 | 148.58179 | 35075 ft | 549 kts | 57° |
| 2026-05-07 07:04 | 38.63385 | 148.66618 | 35070 ft | 550 kts | 57° |
| 2026-05-07 07:05 | 38.67221 | 148.75024 | 35074 ft | 550 kts | 57° |
| 2026-05-07 07:05 | 38.71093 | 148.83531 | 35076 ft | 550 kts | 57° |
| 2026-05-07 07:06 | 38.74934 | 148.91995 | 35080 ft | 550 kts | 57° |
| 2026-05-07 07:06 | 38.78772 | 149.00473 | 35064 ft | 550 kts | 57° |
| 2026-05-07 07:07 | 38.82580 | 149.08909 | 35084 ft | 550 kts | 57° |
| 2026-05-07 07:07 | 38.86398 | 149.17387 | 35077 ft | 550 kts | 57° |
| 2026-05-07 07:08 | 38.90231 | 149.25922 | 35072 ft | 550 kts | 57° |
| 2026-05-07 07:08 | 38.94045 | 149.34440 | 35081 ft | 550 kts | 57° |
| 2026-05-07 07:09 | 38.97854 | 149.42966 | 35081 ft | 551 kts | 57° |
| 2026-05-07 07:09 | 39.01666 | 149.51526 | 35081 ft | 551 kts | 57° |
| 2026-05-07 07:10 | 39.05464 | 149.60075 | 35081 ft | 551 kts | 57° |
| 2026-05-07 07:10 | 39.09254 | 149.68631 | 35078 ft | 551 kts | 57° |
| 2026-05-07 07:11 | 39.13047 | 149.77216 | 35081 ft | 551 kts | 57° |
| 2026-05-07 07:11 | 39.17327 | 149.85325 | 35084 ft | 544 kts | 46° |
| 2026-05-07 07:12 | 39.22216 | 149.92751 | 35081 ft | 543 kts | 44° |
| 2026-05-07 07:12 | 39.27184 | 150.00089 | 35083 ft | 543 kts | 44° |
| 2026-05-07 07:13 | 39.32149 | 150.07438 | 35081 ft | 543 kts | 44° |
| 2026-05-07 07:13 | 39.37104 | 150.14820 | 35082 ft | 544 kts | 44° |
| 2026-05-07 07:14 | 39.42047 | 150.22219 | 35085 ft | 544 kts | 44° |
| 2026-05-07 07:14 | 39.46984 | 150.29627 | 35087 ft | 544 kts | 44° |
| 2026-05-07 07:15 | 39.51920 | 150.37049 | 35084 ft | 544 kts | 44° |
| 2026-05-07 07:15 | 39.56025 | 150.43235 | 35085 ft | 544 kts | 44° |
| 2026-05-07 07:16 | 39.61778 | 150.51925 | 35085 ft | 544 kts | 44° |
| 2026-05-07 07:16 | 39.65869 | 150.58120 | 35085 ft | 544 kts | 44° |
| 2026-05-07 07:17 | 39.70790 | 150.65586 | 35087 ft | 544 kts | 44° |
| 2026-05-07 07:17 | 39.75699 | 150.73053 | 35084 ft | 544 kts | 44° |
| 2026-05-07 07:18 | 39.80610 | 150.80541 | 35084 ft | 544 kts | 44° |
| 2026-05-07 07:18 | 39.85502 | 150.88018 | 35086 ft | 544 kts | 44° |
| 2026-05-07 07:19 | 39.90409 | 150.95535 | 35079 ft | 544 kts | 44° |
| 2026-05-07 07:19 | 39.95272 | 151.03004 | 35088 ft | 544 kts | 44° |
| 2026-05-07 07:20 | 40.00154 | 151.10520 | 35092 ft | 544 kts | 44° |
| 2026-05-07 07:20 | 40.05043 | 151.18064 | 35089 ft | 544 kts | 44° |
| 2026-05-07 07:21 | 40.09951 | 151.25657 | 35087 ft | 544 kts | 44° |
| 2026-05-07 07:21 | 40.14789 | 151.33159 | 35087 ft | 544 kts | 44° |
| 2026-05-07 07:22 | 40.19664 | 151.40738 | 35087 ft | 544 kts | 44° |
| 2026-05-07 07:22 | 40.24536 | 151.48330 | 35087 ft | 544 kts | 44° |
| 2026-05-07 07:23 | 40.29395 | 151.55920 | 35084 ft | 545 kts | 44° |
| 2026-05-07 07:23 | 40.34268 | 151.63551 | 35086 ft | 545 kts | 43° |
| 2026-05-07 07:24 | 40.39129 | 151.71184 | 35083 ft | 545 kts | 43° |
| 2026-05-07 07:24 | 40.43981 | 151.78819 | 35082 ft | 546 kts | 43° |
| 2026-05-07 07:25 | 40.51263 | 151.90316 | 35084 ft | 546 kts | 43° |
| 2026-05-07 07:26 | 40.56126 | 151.98018 | 35084 ft | 546 kts | 43° |
| 2026-05-07 07:26 | 40.60975 | 152.05717 | 35083 ft | 547 kts | 43° |
| 2026-05-07 07:27 | 40.65815 | 152.13420 | 35080 ft | 547 kts | 43° |
| 2026-05-07 07:27 | 40.70660 | 152.21150 | 35081 ft | 547 kts | 43° |
| 2026-05-07 07:28 | 40.75508 | 152.28906 | 35080 ft | 547 kts | 43° |
| 2026-05-07 07:28 | 40.80331 | 152.36641 | 35081 ft | 547 kts | 43° |
| 2026-05-07 07:29 | 40.85166 | 152.44414 | 35081 ft | 547 kts | 43° |
| 2026-05-07 07:29 | 40.89986 | 152.52184 | 35079 ft | 547 kts | 43° |
| 2026-05-07 07:30 | 40.94808 | 152.59977 | 35081 ft | 547 kts | 43° |
| 2026-05-07 07:30 | 40.99619 | 152.67771 | 35080 ft | 547 kts | 43° |
| 2026-05-07 07:31 | 41.04421 | 152.75569 | 35069 ft | 547 kts | 43° |
| 2026-05-07 07:31 | 41.09220 | 152.83384 | 35070 ft | 547 kts | 43° |
| 2026-05-07 07:32 | 41.14018 | 152.91217 | 35073 ft | 547 kts | 43° |
| 2026-05-07 07:32 | 41.18783 | 152.99017 | 35077 ft | 547 kts | 44° |
| 2026-05-07 07:33 | 41.23597 | 153.06916 | 35076 ft | 547 kts | 44° |
| 2026-05-07 07:33 | 41.28347 | 153.14729 | 35077 ft | 547 kts | 44° |
| 2026-05-07 07:34 | 41.33127 | 153.22614 | 35072 ft | 547 kts | 44° |
| 2026-05-07 07:34 | 41.37895 | 153.30500 | 35073 ft | 547 kts | 44° |
| 2026-05-07 07:35 | 41.42660 | 153.38401 | 35072 ft | 547 kts | 44° |
| 2026-05-07 07:35 | 41.47411 | 153.46299 | 35067 ft | 547 kts | 44° |
| 2026-05-07 07:36 | 41.52169 | 153.54228 | 35068 ft | 547 kts | 44° |
| 2026-05-07 07:36 | 41.56915 | 153.62159 | 35067 ft | 546 kts | 44° |
| 2026-05-07 07:37 | 41.61650 | 153.70092 | 35061 ft | 546 kts | 44° |
| 2026-05-07 07:37 | 41.66377 | 153.78033 | 35057 ft | 546 kts | 44° |
| 2026-05-07 07:38 | 41.71103 | 153.85992 | 35070 ft | 546 kts | 44° |
| 2026-05-07 07:38 | 41.75817 | 153.93952 | 35066 ft | 546 kts | 44° |
| 2026-05-07 07:39 | 41.80525 | 154.01922 | 35065 ft | 545 kts | 44° |
| 2026-05-07 07:39 | 41.85222 | 154.09897 | 35065 ft | 545 kts | 44° |
| 2026-05-07 07:40 | 41.89914 | 154.17886 | 35062 ft | 545 kts | 44° |
| 2026-05-07 07:40 | 41.94602 | 154.25887 | 35062 ft | 545 kts | 44° |
| 2026-05-07 07:41 | 41.99285 | 154.33901 | 35064 ft | 545 kts | 44° |
| 2026-05-07 07:41 | 42.03964 | 154.41929 | 35064 ft | 545 kts | 44° |
| 2026-05-07 07:42 | 42.08634 | 154.49963 | 35064 ft | 545 kts | 44° |
| 2026-05-07 07:42 | 42.13287 | 154.57987 | 35058 ft | 544 kts | 44° |
| 2026-05-07 07:43 | 42.17943 | 154.66040 | 35058 ft | 544 kts | 44° |
| 2026-05-07 07:43 | 42.22591 | 154.74100 | 35059 ft | 544 kts | 44° |
| 2026-05-07 07:44 | 42.27229 | 154.82165 | 35058 ft | 544 kts | 44° |
| 2026-05-07 07:44 | 42.31872 | 154.90261 | 35061 ft | 544 kts | 44° |
| 2026-05-07 07:45 | 42.36494 | 154.98341 | 35054 ft | 544 kts | 44° |
| 2026-05-07 07:45 | 42.41114 | 155.06439 | 35054 ft | 544 kts | 44° |
| 2026-05-07 07:46 | 42.45737 | 155.14567 | 35056 ft | 544 kts | 45° |
| 2026-05-07 07:46 | 42.50349 | 155.22695 | 35055 ft | 544 kts | 45° |
| 2026-05-07 07:47 | 42.54943 | 155.30814 | 35056 ft | 544 kts | 45° |
| 2026-05-07 07:47 | 42.59547 | 155.38973 | 35055 ft | 544 kts | 45° |
| 2026-05-07 07:48 | 42.64141 | 155.47137 | 35050 ft | 544 kts | 45° |
| 2026-05-07 07:48 | 42.68729 | 155.55312 | 35051 ft | 544 kts | 45° |
| 2026-05-07 07:49 | 42.73302 | 155.63483 | 35049 ft | 544 kts | 45° |
| 2026-05-07 07:49 | 42.77848 | 155.71629 | 35048 ft | 544 kts | 45° |
| 2026-05-07 07:50 | 42.82445 | 155.79889 | 35046 ft | 544 kts | 45° |
| 2026-05-07 07:50 | 42.86978 | 155.88055 | 35041 ft | 544 kts | 45° |
| 2026-05-07 07:51 | 42.91533 | 155.96284 | 35050 ft | 544 kts | 45° |
| 2026-05-07 07:51 | 42.96088 | 156.04536 | 35046 ft | 544 kts | 45° |
| 2026-05-07 07:52 | 43.00630 | 156.12788 | 35045 ft | 544 kts | 45° |
| 2026-05-07 07:52 | 43.05167 | 156.21053 | 35046 ft | 543 kts | 45° |
| 2026-05-07 07:53 | 43.09692 | 156.29321 | 35040 ft | 543 kts | 45° |
| 2026-05-07 07:53 | 43.14214 | 156.37605 | 35041 ft | 543 kts | 45° |
| 2026-05-07 07:54 | 43.18727 | 156.45895 | 35042 ft | 543 kts | 45° |
| 2026-05-07 07:54 | 43.23234 | 156.54198 | 35039 ft | 543 kts | 45° |
| 2026-05-07 07:55 | 43.27737 | 156.62517 | 35038 ft | 543 kts | 45° |
| 2026-05-07 07:55 | 43.32237 | 156.70853 | 35033 ft | 543 kts | 45° |
| 2026-05-07 07:56 | 43.36735 | 156.79209 | 35028 ft | 543 kts | 46° |
| 2026-05-07 07:56 | 43.41214 | 156.87554 | 35034 ft | 543 kts | 46° |
| 2026-05-07 07:57 | 43.45698 | 156.95933 | 35034 ft | 543 kts | 46° |
| 2026-05-07 07:57 | 43.50168 | 157.04310 | 35034 ft | 543 kts | 46° |
| 2026-05-07 07:58 | 43.54631 | 157.12695 | 35028 ft | 543 kts | 46° |
| 2026-05-07 07:58 | 43.59099 | 157.21116 | 35027 ft | 543 kts | 46° |
| 2026-05-07 07:59 | 43.63520 | 157.29470 | 35031 ft | 543 kts | 46° |
| 2026-05-07 07:59 | 43.68002 | 157.37965 | 35030 ft | 543 kts | 46° |
| 2026-05-07 08:00 | 43.72447 | 157.46413 | 35027 ft | 544 kts | 46° |
| 2026-05-07 08:00 | 43.76854 | 157.54815 | 35027 ft | 544 kts | 46° |
| 2026-05-07 08:01 | 43.81295 | 157.63305 | 35028 ft | 544 kts | 46° |
| 2026-05-07 08:01 | 43.85724 | 157.71798 | 35027 ft | 544 kts | 47° |
| 2026-05-07 08:02 | 43.90145 | 157.80299 | 35023 ft | 544 kts | 47° |
| 2026-05-07 08:02 | 43.93847 | 157.87437 | 35029 ft | 544 kts | 47° |
| 2026-05-07 08:03 | 43.98228 | 157.95905 | 35035 ft | 544 kts | 47° |
| 2026-05-07 08:03 | 44.02630 | 158.04440 | 35025 ft | 544 kts | 47° |
| 2026-05-07 08:04 | 44.07060 | 158.13053 | 35023 ft | 544 kts | 47° |
| 2026-05-07 08:04 | 44.11418 | 158.21556 | 35022 ft | 543 kts | 47° |
| 2026-05-07 08:05 | 44.15830 | 158.30189 | 35019 ft | 543 kts | 47° |
| 2026-05-07 08:05 | 44.20202 | 158.38766 | 35021 ft | 543 kts | 47° |
| 2026-05-07 08:06 | 44.24569 | 158.47362 | 35017 ft | 543 kts | 47° |
| 2026-05-07 08:06 | 44.28904 | 158.55916 | 35017 ft | 543 kts | 47° |
| 2026-05-07 08:07 | 44.33261 | 158.64537 | 35018 ft | 543 kts | 47° |
| 2026-05-07 08:07 | 44.37615 | 158.73180 | 35016 ft | 543 kts | 48° |
| 2026-05-07 08:08 | 44.41953 | 158.81817 | 35021 ft | 543 kts | 48° |
| 2026-05-07 08:08 | 44.46288 | 158.90474 | 35019 ft | 543 kts | 48° |
| 2026-05-07 08:09 | 44.50610 | 158.99133 | 35020 ft | 543 kts | 48° |
| 2026-05-07 08:09 | 44.54933 | 159.07818 | 35012 ft | 543 kts | 48° |
| 2026-05-07 08:10 | 44.59245 | 159.16509 | 35009 ft | 543 kts | 48° |
| 2026-05-07 08:10 | 44.63553 | 159.25215 | 35012 ft | 543 kts | 48° |
| 2026-05-07 08:11 | 44.67852 | 159.33930 | 35012 ft | 543 kts | 48° |
| 2026-05-07 08:11 | 44.72150 | 159.42671 | 35010 ft | 543 kts | 48° |
| 2026-05-07 08:12 | 44.76443 | 159.51429 | 35010 ft | 543 kts | 49° |
| 2026-05-07 08:12 | 44.80698 | 159.60134 | 35010 ft | 543 kts | 49° |
| 2026-05-07 08:13 | 44.85000 | 159.68963 | 35007 ft | 543 kts | 49° |
| 2026-05-07 08:13 | 44.89276 | 159.77764 | 35010 ft | 544 kts | 49° |
| 2026-05-07 08:14 | 44.93510 | 159.86507 | 35009 ft | 544 kts | 49° |
| 2026-05-07 08:14 | 44.97769 | 159.95330 | 35012 ft | 544 kts | 49° |
| 2026-05-07 08:15 | 45.02324 | 160.03853 | 35001 ft | 537 kts | 43° |
| 2026-05-07 08:15 | 45.07071 | 160.11918 | 35010 ft | 537 kts | 42° |
| 2026-05-07 08:16 | 45.11872 | 160.19990 | 35006 ft | 537 kts | 42° |
| 2026-05-07 08:16 | 45.16688 | 160.28114 | 35006 ft | 537 kts | 42° |
| 2026-05-07 08:17 | 45.21478 | 160.36239 | 35007 ft | 538 kts | 43° |
| 2026-05-07 08:17 | 45.26269 | 160.44395 | 35006 ft | 538 kts | 43° |
| 2026-05-07 08:18 | 45.31053 | 160.52565 | 35005 ft | 538 kts | 43° |
| 2026-05-07 08:18 | 45.35824 | 160.60734 | 35009 ft | 538 kts | 43° |
| 2026-05-07 08:19 | 45.40603 | 160.68942 | 35006 ft | 538 kts | 43° |
| 2026-05-07 08:19 | 45.45378 | 160.77165 | 35005 ft | 538 kts | 43° |
| 2026-05-07 08:20 | 45.50136 | 160.85385 | 35006 ft | 538 kts | 43° |
| 2026-05-07 08:20 | 45.54903 | 160.93642 | 35004 ft | 539 kts | 43° |
| 2026-05-07 08:21 | 45.59648 | 161.01888 | 35002 ft | 539 kts | 43° |
| 2026-05-07 08:21 | 45.64405 | 161.10178 | 35002 ft | 539 kts | 43° |
| 2026-05-07 08:22 | 45.69152 | 161.18474 | 35005 ft | 539 kts | 43° |
| 2026-05-07 08:22 | 45.73886 | 161.26773 | 35004 ft | 539 kts | 43° |
| 2026-05-07 08:23 | 45.78613 | 161.35085 | 35001 ft | 539 kts | 43° |
| 2026-05-07 08:23 | 45.83326 | 161.43396 | 35002 ft | 539 kts | 43° |
| 2026-05-07 08:24 | 45.88078 | 161.51800 | 35002 ft | 539 kts | 43° |
| 2026-05-07 08:24 | 45.92802 | 161.60181 | 34998 ft | 540 kts | 43° |
| 2026-05-07 08:25 | 45.97517 | 161.68570 | 35000 ft | 540 kts | 43° |
| 2026-05-07 08:25 | 46.02195 | 161.76920 | 35002 ft | 540 kts | 43° |
| 2026-05-07 08:26 | 46.09261 | 161.89578 | 35000 ft | 541 kts | 44° |
| 2026-05-07 08:26 | 46.13993 | 161.98087 | 35000 ft | 541 kts | 44° |
| 2026-05-07 08:27 | 46.18665 | 162.06514 | 35000 ft | 541 kts | 44° |
| 2026-05-07 08:27 | 46.23352 | 162.14993 | 35000 ft | 541 kts | 44° |
| 2026-05-07 08:28 | 46.28051 | 162.23524 | 34999 ft | 542 kts | 44° |
| 2026-05-07 08:28 | 46.32740 | 162.32061 | 34999 ft | 542 kts | 44° |
| 2026-05-07 08:29 | 46.37421 | 162.40610 | 34998 ft | 542 kts | 44° |
| 2026-05-07 08:29 | 46.42092 | 162.49163 | 35001 ft | 542 kts | 44° |
| 2026-05-07 08:30 | 46.46763 | 162.57744 | 34997 ft | 542 kts | 44° |
| 2026-05-07 08:30 | 46.51432 | 162.66348 | 34988 ft | 542 kts | 44° |
| 2026-05-07 08:31 | 46.56085 | 162.74951 | 34991 ft | 542 kts | 44° |
| 2026-05-07 08:31 | 46.60747 | 162.83597 | 34994 ft | 542 kts | 44° |
| 2026-05-07 08:32 | 46.65391 | 162.92237 | 34993 ft | 542 kts | 44° |
| 2026-05-07 08:32 | 46.70040 | 163.00912 | 34995 ft | 542 kts | 44° |
| 2026-05-07 08:33 | 46.74656 | 163.09552 | 34995 ft | 542 kts | 44° |
| 2026-05-07 08:33 | 46.79290 | 163.18254 | 34994 ft | 542 kts | 44° |
| 2026-05-07 08:34 | 46.83915 | 163.26966 | 34995 ft | 542 kts | 44° |
| 2026-05-07 08:34 | 46.88518 | 163.35665 | 34991 ft | 542 kts | 44° |
| 2026-05-07 08:35 | 46.93108 | 163.44365 | 34993 ft | 542 kts | 44° |
| 2026-05-07 08:35 | 46.97687 | 163.53072 | 34993 ft | 542 kts | 44° |
| 2026-05-07 08:36 | 47.02304 | 163.61880 | 34989 ft | 542 kts | 44° |
| 2026-05-07 08:36 | 47.06887 | 163.70650 | 34989 ft | 542 kts | 44° |
| 2026-05-07 08:37 | 47.11464 | 163.79436 | 34988 ft | 542 kts | 44° |
| 2026-05-07 08:37 | 47.16037 | 163.88243 | 34984 ft | 542 kts | 44° |
| 2026-05-07 08:38 | 47.20606 | 163.97070 | 34985 ft | 542 kts | 44° |
| 2026-05-07 08:38 | 47.25143 | 164.05864 | 34981 ft | 543 kts | 44° |
| 2026-05-07 08:39 | 47.29697 | 164.14720 | 34976 ft | 543 kts | 44° |
| 2026-05-07 08:39 | 47.34278 | 164.23657 | 34980 ft | 543 kts | 44° |
| 2026-05-07 08:40 | 47.38826 | 164.32559 | 34977 ft | 543 kts | 44° |
| 2026-05-07 08:40 | 47.43345 | 164.41432 | 34977 ft | 544 kts | 44° |
| 2026-05-07 08:41 | 47.47881 | 164.50367 | 34979 ft | 544 kts | 44° |
| 2026-05-07 08:41 | 47.52413 | 164.59323 | 34977 ft | 544 kts | 44° |
| 2026-05-07 08:42 | 47.56943 | 164.68307 | 34976 ft | 545 kts | 45° |
| 2026-05-07 08:42 | 47.61476 | 164.77323 | 34971 ft | 545 kts | 45° |
| 2026-05-07 08:43 | 47.66003 | 164.86359 | 34975 ft | 546 kts | 45° |
| 2026-05-07 08:43 | 47.70516 | 164.95396 | 34964 ft | 546 kts | 45° |
| 2026-05-07 08:44 | 47.75036 | 165.04478 | 34967 ft | 546 kts | 45° |
| 2026-05-07 08:44 | 47.79549 | 165.13577 | 34968 ft | 547 kts | 45° |
| 2026-05-07 08:45 | 47.84050 | 165.22682 | 34965 ft | 547 kts | 45° |
| 2026-05-07 08:45 | 47.88553 | 165.31816 | 34962 ft | 547 kts | 45° |
| 2026-05-07 08:46 | 47.93056 | 165.40982 | 34961 ft | 547 kts | 45° |
| 2026-05-07 08:46 | 47.97542 | 165.50146 | 34959 ft | 548 kts | 45° |
| 2026-05-07 08:47 | 48.01273 | 165.57796 | 34960 ft | 548 kts | 45° |
| 2026-05-07 08:47 | 48.06500 | 165.68546 | 34952 ft | 548 kts | 45° |
| 2026-05-07 08:48 | 48.10219 | 165.76218 | 34952 ft | 548 kts | 45° |
| 2026-05-07 08:48 | 48.14687 | 165.85464 | 34953 ft | 548 kts | 45° |
| 2026-05-07 08:49 | 48.19151 | 165.94733 | 34946 ft | 548 kts | 45° |
| 2026-05-07 08:49 | 48.23591 | 166.03985 | 34951 ft | 549 kts | 45° |
| 2026-05-07 08:50 | 48.28054 | 166.13316 | 34938 ft | 549 kts | 45° |
| 2026-05-07 08:50 | 48.32499 | 166.22643 | 34943 ft | 549 kts | 45° |
| 2026-05-07 08:51 | 48.36943 | 166.31999 | 34939 ft | 550 kts | 45° |
| 2026-05-07 08:51 | 48.41386 | 166.41385 | 34941 ft | 550 kts | 45° |
| 2026-05-07 08:52 | 48.45811 | 166.50768 | 34932 ft | 550 kts | 45° |
| 2026-05-07 08:52 | 48.50229 | 166.60166 | 34931 ft | 550 kts | 45° |
| 2026-05-07 08:53 | 48.54650 | 166.69602 | 34930 ft | 551 kts | 45° |
| 2026-05-07 08:53 | 48.59042 | 166.79012 | 34929 ft | 551 kts | 45° |
| 2026-05-07 08:54 | 48.63445 | 166.88476 | 34927 ft | 551 kts | 45° |
| 2026-05-07 08:54 | 48.67871 | 166.98024 | 34923 ft | 551 kts | 46° |
| 2026-05-07 08:55 | 48.72243 | 167.07488 | 34921 ft | 551 kts | 46° |
| 2026-05-07 08:55 | 48.76612 | 167.16980 | 34921 ft | 551 kts | 46° |
| 2026-05-07 08:56 | 48.81006 | 167.26560 | 34915 ft | 551 kts | 46° |
| 2026-05-07 08:56 | 48.85368 | 167.36104 | 34911 ft | 551 kts | 46° |
| 2026-05-07 08:57 | 48.89728 | 167.45680 | 34909 ft | 551 kts | 46° |
| 2026-05-07 08:57 | 48.94084 | 167.55278 | 34912 ft | 551 kts | 46° |
| 2026-05-07 08:58 | 48.98426 | 167.64881 | 34905 ft | 550 kts | 46° |
| 2026-05-07 08:58 | 49.02754 | 167.74487 | 34904 ft | 550 kts | 46° |
| 2026-05-07 08:59 | 49.07069 | 167.84098 | 34902 ft | 549 kts | 47° |
| 2026-05-07 08:59 | 49.11362 | 167.93694 | 34899 ft | 548 kts | 47° |
| 2026-05-07 09:00 | 49.15659 | 168.03333 | 34895 ft | 548 kts | 47° |
| 2026-05-07 09:00 | 49.19935 | 168.12966 | 34894 ft | 547 kts | 47° |
| 2026-05-07 09:01 | 49.24200 | 168.22598 | 34892 ft | 547 kts | 47° |
| 2026-05-07 09:01 | 49.28454 | 168.32237 | 34885 ft | 546 kts | 47° |
| 2026-05-07 09:02 | 49.32669 | 168.41827 | 34886 ft | 546 kts | 48° |
| 2026-05-07 09:02 | 49.36907 | 168.51510 | 34880 ft | 546 kts | 48° |
| 2026-05-07 09:03 | 49.41133 | 168.61202 | 34871 ft | 546 kts | 48° |
| 2026-05-07 09:03 | 49.45339 | 168.70884 | 34875 ft | 546 kts | 49° |
| 2026-05-07 09:04 | 49.49550 | 168.80608 | 34873 ft | 545 kts | 49° |
| 2026-05-07 09:04 | 49.53743 | 168.90326 | 34873 ft | 545 kts | 49° |
| 2026-05-07 09:05 | 49.57926 | 169.00055 | 34870 ft | 544 kts | 49° |
| 2026-05-07 09:05 | 49.62095 | 169.09788 | 34865 ft | 544 kts | 49° |
| 2026-05-07 09:06 | 49.66251 | 169.19526 | 34861 ft | 543 kts | 50° |
| 2026-05-07 09:06 | 49.70404 | 169.29292 | 34859 ft | 543 kts | 50° |
| 2026-05-07 09:07 | 49.74538 | 169.39051 | 34857 ft | 542 kts | 50° |
| 2026-05-07 09:07 | 49.78648 | 169.48790 | 34857 ft | 541 kts | 50° |
| 2026-05-07 09:08 | 49.82758 | 169.58562 | 34857 ft | 541 kts | 51° |
| 2026-05-07 09:08 | 49.86847 | 169.68324 | 34846 ft | 540 kts | 51° |
| 2026-05-07 09:09 | 49.90924 | 169.78092 | 34842 ft | 539 kts | 51° |
| 2026-05-07 09:09 | 49.94992 | 169.87874 | 34840 ft | 539 kts | 51° |
| 2026-05-07 09:10 | 49.99045 | 169.97656 | 34974 ft | 536 kts | 51° |
| 2026-05-07 09:10 | 50.01045 | 170.02523 | 35309 ft | 533 kts | 53° |
| 2026-05-07 09:10 | 50.02934 | 170.07463 | 35662 ft | 531 kts | 55° |
| 2026-05-07 09:11 | 50.04713 | 170.12406 | 35926 ft | 530 kts | 56° |
| 2026-05-07 09:11 | 50.06478 | 170.17429 | 36154 ft | 529 kts | 57° |
| 2026-05-07 09:11 | 50.08261 | 170.22509 | 36344 ft | 528 kts | 57° |
| 2026-05-07 09:11 | 50.10010 | 170.27458 | 36549 ft | 527 kts | 57° |
| 2026-05-07 09:12 | 50.11785 | 170.32443 | 36750 ft | 527 kts | 57° |
| 2026-05-07 09:12 | 50.13575 | 170.37441 | 36826 ft | 529 kts | 57° |
| 2026-05-07 09:12 | 50.17193 | 170.47509 | 36825 ft | 534 kts | 57° |
| 2026-05-07 09:13 | 50.20808 | 170.57609 | 36826 ft | 532 kts | 57° |
| 2026-05-07 09:13 | 50.24402 | 170.67697 | 36826 ft | 532 kts | 57° |
| 2026-05-07 09:14 | 50.27978 | 170.77778 | 36821 ft | 531 kts | 57° |
| 2026-05-07 09:14 | 50.31542 | 170.87862 | 36823 ft | 531 kts | 57° |
| 2026-05-07 09:15 | 50.35117 | 170.98016 | 36818 ft | 530 kts | 58° |
| 2026-05-07 09:15 | 50.38663 | 171.08129 | 36817 ft | 529 kts | 58° |
| 2026-05-07 09:16 | 50.42190 | 171.18231 | 36816 ft | 529 kts | 58° |
| 2026-05-07 09:16 | 50.45720 | 171.28377 | 36816 ft | 528 kts | 58° |
| 2026-05-07 09:17 | 50.49229 | 171.38507 | 36813 ft | 528 kts | 58° |
| 2026-05-07 09:17 | 50.52722 | 171.48628 | 36811 ft | 527 kts | 58° |
| 2026-05-07 09:18 | 50.56213 | 171.58785 | 36811 ft | 527 kts | 59° |
| 2026-05-07 09:18 | 50.59686 | 171.68931 | 36807 ft | 526 kts | 59° |
| 2026-05-07 09:19 | 50.63139 | 171.79058 | 36812 ft | 526 kts | 59° |
| 2026-05-07 09:19 | 50.66571 | 171.89165 | 36794 ft | 525 kts | 59° |
| 2026-05-07 09:20 | 50.70005 | 171.99320 | 36812 ft | 525 kts | 59° |
| 2026-05-07 09:20 | 50.73421 | 172.09459 | 36802 ft | 524 kts | 59° |
| 2026-05-07 09:21 | 50.76864 | 172.19723 | 36800 ft | 524 kts | 60° |
| 2026-05-07 09:21 | 50.80246 | 172.29843 | 36798 ft | 524 kts | 60° |
| 2026-05-07 09:22 | 50.83636 | 172.40029 | 36798 ft | 523 kts | 60° |
| 2026-05-07 09:22 | 50.87014 | 172.50221 | 36797 ft | 523 kts | 60° |
| 2026-05-07 09:23 | 50.90382 | 172.60425 | 36794 ft | 523 kts | 60° |
| 2026-05-07 09:23 | 50.93737 | 172.70631 | 36793 ft | 522 kts | 60° |
| 2026-05-07 09:24 | 50.97081 | 172.80844 | 36793 ft | 522 kts | 60° |
| 2026-05-07 09:24 | 51.00423 | 172.91093 | 36794 ft | 522 kts | 60° |
| 2026-05-07 09:25 | 51.03745 | 173.01325 | 36791 ft | 521 kts | 61° |
| 2026-05-07 09:25 | 51.07057 | 173.11569 | 36788 ft | 521 kts | 61° |
| 2026-05-07 09:26 | 51.10364 | 173.21838 | 36789 ft | 521 kts | 61° |
| 2026-05-07 09:26 | 51.13659 | 173.32112 | 36786 ft | 521 kts | 61° |
| 2026-05-07 09:27 | 51.16938 | 173.42377 | 36784 ft | 520 kts | 61° |
| 2026-05-07 09:28 | 51.21840 | 173.57806 | 36782 ft | 520 kts | 62° |
| 2026-05-07 09:28 | 51.25096 | 173.68111 | 36782 ft | 520 kts | 62° |
| 2026-05-07 09:29 | 51.28324 | 173.78366 | 36785 ft | 520 kts | 62° |
| 2026-05-07 09:29 | 51.31579 | 173.88754 | 36782 ft | 519 kts | 62° |
| 2026-05-07 09:30 | 51.34804 | 173.99088 | 36780 ft | 519 kts | 62° |
| 2026-05-07 09:30 | 51.37997 | 174.09361 | 36780 ft | 519 kts | 62° |
| 2026-05-07 09:31 | 51.41196 | 174.19699 | 36778 ft | 518 kts | 62° |
| 2026-05-07 09:31 | 51.44384 | 174.30043 | 36783 ft | 518 kts | 62° |
| 2026-05-07 09:32 | 51.47568 | 174.40419 | 36779 ft | 518 kts | 63° |
| 2026-05-07 09:32 | 51.50729 | 174.50766 | 36779 ft | 517 kts | 63° |
| 2026-05-07 09:33 | 51.53890 | 174.61156 | 36786 ft | 517 kts | 63° |
| 2026-05-07 09:33 | 51.57033 | 174.71530 | 36784 ft | 516 kts | 63° |
| 2026-05-07 09:34 | 51.60166 | 174.81916 | 36788 ft | 516 kts | 63° |
| 2026-05-07 09:34 | 51.63282 | 174.92294 | 36787 ft | 516 kts | 63° |
| 2026-05-07 09:35 | 51.66399 | 175.02716 | 36787 ft | 515 kts | 63° |
| 2026-05-07 09:35 | 51.69495 | 175.13116 | 36787 ft | 515 kts | 63° |
| 2026-05-07 09:36 | 51.72063 | 175.21777 | 36786 ft | 515 kts | 64° |
| 2026-05-07 09:36 | 51.75139 | 175.32190 | 36795 ft | 514 kts | 64° |
| 2026-05-07 09:37 | 51.78209 | 175.42628 | 36790 ft | 514 kts | 64° |
| 2026-05-07 09:37 | 51.81261 | 175.53049 | 36792 ft | 513 kts | 64° |
| 2026-05-07 09:38 | 51.84300 | 175.63477 | 36792 ft | 512 kts | 64° |
| 2026-05-07 09:38 | 51.87327 | 175.73904 | 36794 ft | 512 kts | 64° |
| 2026-05-07 09:39 | 51.90342 | 175.84338 | 36793 ft | 511 kts | 64° |
| 2026-05-07 09:39 | 51.93334 | 175.94738 | 36794 ft | 511 kts | 64° |
| 2026-05-07 09:40 | 51.96330 | 176.05197 | 36797 ft | 510 kts | 65° |
| 2026-05-07 09:40 | 51.99308 | 176.15637 | 36797 ft | 510 kts | 65° |
| 2026-05-07 09:41 | 52.02273 | 176.26080 | 36796 ft | 509 kts | 65° |
| 2026-05-07 09:41 | 52.05223 | 176.36520 | 36796 ft | 509 kts | 65° |
| 2026-05-07 09:42 | 52.08165 | 176.46973 | 36796 ft | 509 kts | 65° |
| 2026-05-07 09:42 | 52.11098 | 176.57443 | 36797 ft | 508 kts | 65° |
| 2026-05-07 09:43 | 52.14016 | 176.67905 | 36798 ft | 508 kts | 66° |
| 2026-05-07 09:43 | 52.16923 | 176.78376 | 36802 ft | 508 kts | 66° |
| 2026-05-07 09:44 | 52.19820 | 176.88856 | 36797 ft | 507 kts | 66° |
| 2026-05-07 09:44 | 52.22703 | 176.99335 | 36796 ft | 507 kts | 66° |
| 2026-05-07 09:45 | 52.25549 | 177.09725 | 36796 ft | 506 kts | 66° |
| 2026-05-07 09:45 | 52.28414 | 177.20229 | 36794 ft | 506 kts | 66° |
| 2026-05-07 09:46 | 52.31261 | 177.30721 | 36799 ft | 505 kts | 66° |
| 2026-05-07 09:46 | 52.34096 | 177.41213 | 36798 ft | 505 kts | 67° |
| 2026-05-07 09:47 | 52.36922 | 177.51719 | 36799 ft | 504 kts | 67° |
| 2026-05-07 09:47 | 52.39741 | 177.62246 | 36802 ft | 504 kts | 67° |
| 2026-05-07 09:48 | 52.42503 | 177.72608 | 36798 ft | 504 kts | 67° |
| 2026-05-07 09:48 | 52.45303 | 177.83161 | 36796 ft | 503 kts | 67° |
| 2026-05-07 09:49 | 52.48085 | 177.93694 | 36792 ft | 503 kts | 68° |
| 2026-05-07 09:49 | 52.50851 | 178.04215 | 36792 ft | 502 kts | 68° |
| 2026-05-07 09:50 | 52.53608 | 178.14752 | 36792 ft | 502 kts | 68° |
| 2026-05-07 09:50 | 52.56351 | 178.25283 | 36793 ft | 502 kts | 68° |
| 2026-05-07 09:51 | 52.59087 | 178.35838 | 36792 ft | 501 kts | 68° |
| 2026-05-07 09:51 | 52.61786 | 178.46297 | 36791 ft | 501 kts | 68° |
| 2026-05-07 09:52 | 52.64522 | 178.56949 | 36792 ft | 501 kts | 69° |
| 2026-05-07 09:52 | 52.67220 | 178.67506 | 36792 ft | 500 kts | 69° |
| 2026-05-07 09:53 | 52.69892 | 178.78012 | 36798 ft | 500 kts | 69° |
| 2026-05-07 09:53 | 52.72567 | 178.88576 | 36795 ft | 500 kts | 69° |
| 2026-05-07 09:54 | 52.75254 | 178.99239 | 36794 ft | 499 kts | 69° |
| 2026-05-07 09:54 | 52.77891 | 179.09754 | 36794 ft | 499 kts | 69° |
| 2026-05-07 09:55 | 52.80525 | 179.20306 | 36798 ft | 499 kts | 69° |
| 2026-05-07 09:55 | 52.83170 | 179.30949 | 36797 ft | 498 kts | 70° |
| 2026-05-07 09:56 | 52.85792 | 179.41556 | 36797 ft | 498 kts | 70° |
| 2026-05-07 09:56 | 52.88399 | 179.52154 | 36800 ft | 497 kts | 70° |
| 2026-05-07 09:57 | 52.90996 | 179.62760 | 36794 ft | 497 kts | 70° |
| 2026-05-07 09:57 | 52.93598 | 179.73438 | 36794 ft | 497 kts | 70° |
| 2026-05-07 09:58 | 52.96163 | 179.84015 | 36799 ft | 497 kts | 70° |
| 2026-05-07 09:58 | 52.98728 | 179.94644 | 36798 ft | 496 kts | 70° |
| 2026-05-07 09:59 | 53.00798 | -179.94472 | 36812 ft | 493 kts | 78° |
| 2026-05-07 09:59 | 53.02432 | -179.83424 | 36792 ft | 493 kts | 79° |
| 2026-05-07 10:00 | 53.04003 | -179.72341 | 36806 ft | 492 kts | 79° |
| 2026-05-07 10:00 | 53.05559 | -179.61280 | 36809 ft | 492 kts | 79° |
| 2026-05-07 10:01 | 53.07114 | -179.50211 | 36807 ft | 491 kts | 79° |
| 2026-05-07 10:01 | 53.08659 | -179.39160 | 36813 ft | 490 kts | 79° |
| 2026-05-07 10:02 | 53.10194 | -179.28111 | 36815 ft | 490 kts | 80° |
| 2026-05-07 10:02 | 53.11717 | -179.17065 | 36822 ft | 489 kts | 79° |
| 2026-05-07 10:03 | 53.12969 | -179.07911 | 36825 ft | 488 kts | 79° |
| 2026-05-07 10:03 | 53.14720 | -178.95008 | 36821 ft | 488 kts | 80° |
| 2026-05-07 10:04 | 53.16203 | -178.84000 | 36821 ft | 487 kts | 80° |
| 2026-05-07 10:04 | 53.17677 | -178.72972 | 36821 ft | 487 kts | 80° |
| 2026-05-07 10:05 | 53.19136 | -178.61975 | 36821 ft | 486 kts | 80° |
| 2026-05-07 10:05 | 53.20583 | -178.50984 | 36824 ft | 486 kts | 80° |
| 2026-05-07 10:06 | 53.22015 | -178.40017 | 36824 ft | 486 kts | 81° |
| 2026-05-07 10:06 | 53.23451 | -178.28941 | 36824 ft | 486 kts | 81° |
| 2026-05-07 10:07 | 53.24865 | -178.17948 | 36824 ft | 485 kts | 81° |
| 2026-05-07 10:07 | 53.26274 | -178.06910 | 36828 ft | 485 kts | 81° |
| 2026-05-07 10:08 | 53.27668 | -177.95896 | 36828 ft | 484 kts | 81° |
| 2026-05-07 10:08 | 53.29042 | -177.84962 | 36829 ft | 484 kts | 81° |
| 2026-05-07 10:09 | 53.30412 | -177.73962 | 36825 ft | 483 kts | 81° |
| 2026-05-07 10:09 | 53.31782 | -177.62883 | 36830 ft | 483 kts | 81° |
| 2026-05-07 10:10 | 53.33127 | -177.51910 | 36828 ft | 482 kts | 82° |
| 2026-05-07 10:10 | 53.34465 | -177.40913 | 36833 ft | 482 kts | 82° |
| 2026-05-07 10:11 | 53.35794 | -177.29888 | 36829 ft | 482 kts | 82° |
| 2026-05-07 10:11 | 53.37103 | -177.18948 | 36839 ft | 482 kts | 82° |
| 2026-05-07 10:12 | 53.38404 | -177.07978 | 36845 ft | 481 kts | 82° |
| 2026-05-07 10:12 | 53.39702 | -176.96947 | 36824 ft | 481 kts | 82° |
| 2026-05-07 10:13 | 53.40985 | -176.85947 | 36835 ft | 481 kts | 82° |
| 2026-05-07 10:13 | 53.42252 | -176.74997 | 36837 ft | 481 kts | 82° |
| 2026-05-07 10:14 | 53.43521 | -176.63928 | 36833 ft | 481 kts | 83° |
| 2026-05-07 10:14 | 53.44773 | -176.52919 | 36835 ft | 481 kts | 83° |
| 2026-05-07 10:15 | 53.46014 | -176.41907 | 36832 ft | 480 kts | 83° |
| 2026-05-07 10:15 | 53.47245 | -176.30887 | 36838 ft | 480 kts | 83° |
| 2026-05-07 10:16 | 53.48465 | -176.19869 | 36836 ft | 480 kts | 83° |
| 2026-05-07 10:16 | 53.49673 | -176.08862 | 36841 ft | 480 kts | 83° |
| 2026-05-07 10:17 | 53.50673 | -175.99676 | 36832 ft | 480 kts | 83° |
| 2026-05-07 10:17 | 53.52062 | -175.86790 | 36846 ft | 480 kts | 83° |
| 2026-05-07 10:18 | 53.53241 | -175.75759 | 36835 ft | 480 kts | 83° |
| 2026-05-07 10:18 | 53.54409 | -175.64718 | 36855 ft | 480 kts | 83° |
| 2026-05-07 10:19 | 53.55564 | -175.53697 | 36852 ft | 480 kts | 83° |
| 2026-05-07 10:19 | 53.56692 | -175.42840 | 36827 ft | 480 kts | 83° |
| 2026-05-07 10:20 | 53.57838 | -175.31704 | 36840 ft | 480 kts | 83° |
| 2026-05-07 10:20 | 53.58778 | -175.22481 | 36844 ft | 480 kts | 83° |
| 2026-05-07 10:21 | 53.59895 | -175.11436 | 36841 ft | 480 kts | 83° |
| 2026-05-07 10:21 | 53.60993 | -175.00458 | 36849 ft | 480 kts | 83° |
| 2026-05-07 10:22 | 53.62096 | -174.89334 | 36846 ft | 480 kts | 83° |
| 2026-05-07 10:22 | 53.63184 | -174.78254 | 36913 ft | 480 kts | 84° |
| 2026-05-07 10:23 | 53.64258 | -174.67245 | 36851 ft | 473 kts | 84° |
| 2026-05-07 10:23 | 53.65314 | -174.56283 | 36853 ft | 473 kts | 84° |
| 2026-05-07 10:24 | 53.66357 | -174.45324 | 36850 ft | 473 kts | 84° |
| 2026-05-07 10:24 | 53.67389 | -174.34379 | 36849 ft | 473 kts | 84° |
| 2026-05-07 10:25 | 53.68408 | -174.23457 | 36858 ft | 473 kts | 84° |
| 2026-05-07 10:25 | 53.68911 | -174.18036 | 36855 ft | 473 kts | 84° |
| 2026-05-07 10:26 | 53.70518 | -174.00496 | 36859 ft | 473 kts | 84° |
| 2026-05-07 10:26 | 53.71507 | -173.89566 | 36858 ft | 473 kts | 84° |
| 2026-05-07 10:27 | 53.72488 | -173.78596 | 36867 ft | 473 kts | 84° |
| 2026-05-07 10:27 | 53.73465 | -173.67554 | 36864 ft | 473 kts | 84° |
| 2026-05-07 10:28 | 53.74428 | -173.56558 | 36877 ft | 473 kts | 84° |
| 2026-05-07 10:28 | 53.75379 | -173.45566 | 36863 ft | 473 kts | 84° |
| 2026-05-07 10:29 | 53.76321 | -173.34570 | 36878 ft | 473 kts | 84° |
| 2026-05-07 10:29 | 53.77253 | -173.23568 | 36877 ft | 473 kts | 84° |
| 2026-05-07 10:30 | 53.78628 | -173.07094 | 36880 ft | 473 kts | 84° |
| 2026-05-07 10:30 | 53.79535 | -172.96076 | 36887 ft | 473 kts | 84° |
| 2026-05-07 10:31 | 53.80432 | -172.85050 | 36884 ft | 474 kts | 84° |
| 2026-05-07 10:31 | 53.81318 | -172.74031 | 36890 ft | 474 kts | 84° |
| 2026-05-07 10:32 | 53.82197 | -172.62971 | 36888 ft | 474 kts | 84° |
| 2026-05-07 10:32 | 53.83064 | -172.51921 | 36896 ft | 474 kts | 84° |
| 2026-05-07 10:33 | 53.83921 | -172.40876 | 36894 ft | 474 kts | 85° |
| 2026-05-07 10:33 | 53.84762 | -172.29886 | 36898 ft | 474 kts | 85° |
| 2026-05-07 10:34 | 53.85608 | -172.18707 | 36895 ft | 474 kts | 85° |
| 2026-05-07 10:34 | 53.86429 | -172.07726 | 36898 ft | 474 kts | 85° |
| 2026-05-07 10:35 | 53.87246 | -171.96651 | 36903 ft | 474 kts | 85° |
| 2026-05-07 10:35 | 53.88054 | -171.85556 | 36902 ft | 475 kts | 85° |
| 2026-05-07 10:36 | 53.88852 | -171.74439 | 36908 ft | 475 kts | 85° |
| 2026-05-07 10:36 | 53.89640 | -171.63329 | 36907 ft | 475 kts | 85° |
| 2026-05-07 10:37 | 53.90420 | -171.52188 | 36911 ft | 475 kts | 85° |
| 2026-05-07 10:37 | 53.91188 | -171.41056 | 36915 ft | 475 kts | 85° |
| 2026-05-07 10:38 | 53.91947 | -171.29906 | 36921 ft | 476 kts | 85° |
| 2026-05-07 10:38 | 53.92690 | -171.18835 | 36919 ft | 476 kts | 85° |
| 2026-05-07 10:39 | 53.93427 | -171.07689 | 36916 ft | 476 kts | 85° |
| 2026-05-07 10:39 | 53.94039 | -170.98316 | 36918 ft | 476 kts | 85° |
| 2026-05-07 10:40 | 53.94875 | -170.85324 | 36921 ft | 477 kts | 85° |
| 2026-05-07 10:40 | 53.95584 | -170.74129 | 36925 ft | 477 kts | 85° |
| 2026-05-07 10:41 | 53.96281 | -170.62964 | 36924 ft | 477 kts | 85° |
| 2026-05-07 10:41 | 53.96853 | -170.53668 | 36923 ft | 477 kts | 85° |
| 2026-05-07 10:42 | 53.97645 | -170.40562 | 36926 ft | 477 kts | 86° |
| 2026-05-07 10:42 | 53.98201 | -170.31213 | 36931 ft | 477 kts | 85° |
| 2026-05-07 10:43 | 53.98860 | -170.19999 | 36932 ft | 477 kts | 86° |
| 2026-05-07 10:43 | 53.99508 | -170.08791 | 36931 ft | 477 kts | 86° |
| 2026-05-07 10:44 | 54.00399 | -169.97599 | 36941 ft | 479 kts | 79° |
| 2026-05-07 10:44 | 54.01912 | -169.86565 | 36940 ft | 479 kts | 78° |
| 2026-05-07 10:45 | 54.03497 | -169.75562 | 36943 ft | 480 kts | 77° |
| 2026-05-07 10:45 | 54.05079 | -169.64524 | 36944 ft | 480 kts | 77° |
| 2026-05-07 10:46 | 54.06638 | -169.53471 | 36948 ft | 481 kts | 77° |
| 2026-05-07 10:46 | 54.08185 | -169.42403 | 36951 ft | 481 kts | 77° |
| 2026-05-07 10:47 | 54.09722 | -169.31325 | 36950 ft | 481 kts | 77° |
| 2026-05-07 10:47 | 54.11253 | -169.20207 | 36954 ft | 481 kts | 77° |
| 2026-05-07 10:48 | 54.12773 | -169.09089 | 36955 ft | 482 kts | 77° |
| 2026-05-07 10:48 | 54.14273 | -168.98027 | 36958 ft | 482 kts | 77° |
| 2026-05-07 10:49 | 54.15772 | -168.86896 | 36962 ft | 483 kts | 77° |
| 2026-05-07 10:49 | 54.17267 | -168.75713 | 36966 ft | 484 kts | 77° |
| 2026-05-07 10:50 | 54.18754 | -168.64508 | 36966 ft | 484 kts | 77° |
| 2026-05-07 10:50 | 54.20228 | -168.53305 | 36972 ft | 484 kts | 77° |
| 2026-05-07 10:51 | 54.21699 | -168.42040 | 36973 ft | 485 kts | 77° |
| 2026-05-07 10:51 | 54.23153 | -168.30817 | 36974 ft | 486 kts | 77° |
| 2026-05-07 10:52 | 54.24608 | -168.19495 | 36977 ft | 486 kts | 77° |
| 2026-05-07 10:52 | 54.26051 | -168.08178 | 36978 ft | 487 kts | 77° |
| 2026-05-07 10:53 | 54.27483 | -167.96859 | 36978 ft | 487 kts | 77° |
| 2026-05-07 10:53 | 54.28905 | -167.85525 | 36984 ft | 487 kts | 77° |
| 2026-05-07 10:54 | 54.30313 | -167.74201 | 36983 ft | 487 kts | 77° |
| 2026-05-07 10:54 | 54.31718 | -167.62820 | 36988 ft | 488 kts | 77° |
| 2026-05-07 10:55 | 54.33109 | -167.51453 | 36988 ft | 488 kts | 77° |
| 2026-05-07 10:55 | 54.34495 | -167.40040 | 36991 ft | 488 kts | 77° |
| 2026-05-07 10:56 | 54.35865 | -167.28650 | 36993 ft | 489 kts | 77° |
| 2026-05-07 10:56 | 54.37227 | -167.17232 | 36995 ft | 489 kts | 77° |
| 2026-05-07 10:57 | 54.38582 | -167.05784 | 37005 ft | 490 kts | 77° |
| 2026-05-07 10:57 | 54.39925 | -166.94326 | 37010 ft | 490 kts | 77° |
| 2026-05-07 10:58 | 54.41260 | -166.82835 | 37025 ft | 491 kts | 77° |
| 2026-05-07 10:58 | 54.42583 | -166.71354 | 37030 ft | 491 kts | 77° |
| 2026-05-07 10:59 | 54.43896 | -166.59849 | 37036 ft | 491 kts | 77° |
| 2026-05-07 10:59 | 54.45201 | -166.48313 | 37038 ft | 492 kts | 77° |
| 2026-05-07 11:00 | 54.46498 | -166.36766 | 37040 ft | 493 kts | 77° |
| 2026-05-07 11:00 | 54.47785 | -166.25187 | 37038 ft | 493 kts | 78° |
| 2026-05-07 11:01 | 54.49062 | -166.13588 | 37036 ft | 494 kts | 78° |
| 2026-05-07 11:01 | 54.50320 | -166.02065 | 37036 ft | 494 kts | 78° |
| 2026-05-07 11:02 | 54.51577 | -165.90427 | 37037 ft | 494 kts | 78° |
| 2026-05-07 11:02 | 54.52832 | -165.78705 | 37040 ft | 495 kts | 78° |
| 2026-05-07 11:03 | 54.54058 | -165.67132 | 37037 ft | 495 kts | 78° |
| 2026-05-07 11:03 | 54.55281 | -165.55481 | 37044 ft | 495 kts | 78° |
| 2026-05-07 11:04 | 54.56494 | -165.43801 | 37042 ft | 495 kts | 78° |
| 2026-05-07 11:04 | 54.57697 | -165.32119 | 37045 ft | 496 kts | 78° |
| 2026-05-07 11:05 | 54.58891 | -165.20401 | 37046 ft | 496 kts | 78° |
| 2026-05-07 11:05 | 54.60073 | -165.08683 | 37046 ft | 496 kts | 78° |
| 2026-05-07 11:06 | 54.61243 | -164.96961 | 37046 ft | 497 kts | 79° |
| 2026-05-07 11:06 | 54.62403 | -164.85210 | 37052 ft | 497 kts | 79° |
| 2026-05-07 11:07 | 54.63556 | -164.73418 | 37053 ft | 497 kts | 79° |
| 2026-05-07 11:07 | 54.64695 | -164.61654 | 37056 ft | 498 kts | 79° |
| 2026-05-07 11:08 | 54.65823 | -164.49869 | 37066 ft | 498 kts | 79° |
| 2026-05-07 11:08 | 54.66944 | -164.38040 | 37066 ft | 498 kts | 79° |
| 2026-05-07 11:09 | 54.68052 | -164.26221 | 37065 ft | 499 kts | 79° |
| 2026-05-07 11:09 | 54.69149 | -164.14393 | 37072 ft | 499 kts | 79° |
| 2026-05-07 11:10 | 54.70236 | -164.02528 | 37068 ft | 499 kts | 79° |
| 2026-05-07 11:10 | 54.71312 | -163.90661 | 37069 ft | 499 kts | 79° |
| 2026-05-07 11:11 | 54.72375 | -163.78796 | 37071 ft | 500 kts | 79° |
| 2026-05-07 11:11 | 54.73430 | -163.66890 | 37072 ft | 500 kts | 79° |
| 2026-05-07 11:12 | 54.74466 | -163.55074 | 37066 ft | 500 kts | 79° |
| 2026-05-07 11:12 | 54.75496 | -163.43170 | 37069 ft | 501 kts | 79° |
| 2026-05-07 11:13 | 54.76517 | -163.31236 | 37071 ft | 501 kts | 80° |
| 2026-05-07 11:13 | 54.77525 | -163.19298 | 37071 ft | 501 kts | 80° |
| 2026-05-07 11:14 | 54.78523 | -163.07352 | 37071 ft | 501 kts | 80° |
| 2026-05-07 11:14 | 54.79516 | -162.95308 | 37076 ft | 501 kts | 80° |
| 2026-05-07 11:15 | 54.80483 | -162.83432 | 37079 ft | 502 kts | 80° |
| 2026-05-07 11:15 | 54.81447 | -162.71436 | 37084 ft | 502 kts | 80° |
| 2026-05-07 11:16 | 54.82398 | -162.59453 | 37095 ft | 502 kts | 80° |
| 2026-05-07 11:16 | 54.83336 | -162.47479 | 37102 ft | 502 kts | 81° |
| 2026-05-07 11:17 | 54.84267 | -162.35452 | 37108 ft | 502 kts | 81° |
| 2026-05-07 11:17 | 54.85182 | -162.23454 | 37106 ft | 502 kts | 81° |
| 2026-05-07 11:18 | 54.86088 | -162.11418 | 37102 ft | 502 kts | 81° |
| 2026-05-07 11:18 | 54.86981 | -161.99393 | 37096 ft | 502 kts | 81° |
| 2026-05-07 11:19 | 54.87862 | -161.87363 | 37087 ft | 502 kts | 81° |
| 2026-05-07 11:19 | 54.88732 | -161.75322 | 37083 ft | 502 kts | 81° |
| 2026-05-07 11:20 | 54.89590 | -161.63273 | 37088 ft | 503 kts | 81° |
| 2026-05-07 11:20 | 54.90435 | -161.51227 | 37090 ft | 503 kts | 81° |
| 2026-05-07 11:21 | 54.91269 | -161.39171 | 37084 ft | 503 kts | 82° |
| 2026-05-07 11:21 | 54.92092 | -161.27093 | 37084 ft | 502 kts | 82° |
| 2026-05-07 11:22 | 54.92895 | -161.15129 | 37083 ft | 502 kts | 82° |
| 2026-05-07 11:22 | 54.93697 | -161.03004 | 37087 ft | 502 kts | 82° |
| 2026-05-07 11:23 | 54.94479 | -160.90999 | 37088 ft | 502 kts | 82° |
| 2026-05-07 11:23 | 54.95257 | -160.78856 | 37086 ft | 502 kts | 82° |
| 2026-05-07 11:24 | 54.96018 | -160.66794 | 37090 ft | 502 kts | 82° |
| 2026-05-07 11:24 | 54.96762 | -160.54807 | 37093 ft | 501 kts | 83° |
| 2026-05-07 11:25 | 54.97503 | -160.42662 | 37090 ft | 501 kts | 83° |
| 2026-05-07 11:25 | 54.98223 | -160.30675 | 37093 ft | 501 kts | 83° |
| 2026-05-07 11:26 | 54.98935 | -160.18617 | 37092 ft | 501 kts | 83° |
| 2026-05-07 11:26 | 54.99637 | -160.06525 | 37092 ft | 501 kts | 83° |
| 2026-05-07 11:27 | 55.00800 | -159.94611 | 37095 ft | 499 kts | 76° |
| 2026-05-07 11:27 | 55.02442 | -159.82838 | 37096 ft | 499 kts | 75° |
| 2026-05-07 11:28 | 55.03838 | -159.73106 | 37082 ft | 499 kts | 75° |
| 2026-05-07 11:28 | 55.05514 | -159.61341 | 37095 ft | 499 kts | 75° |
| 2026-05-07 11:29 | 55.07167 | -159.49577 | 37101 ft | 499 kts | 75° |
| 2026-05-07 11:29 | 55.08803 | -159.37811 | 37086 ft | 499 kts | 76° |
| 2026-05-07 11:30 | 55.10430 | -159.26016 | 37104 ft | 499 kts | 76° |
| 2026-05-07 11:30 | 55.12041 | -159.14240 | 37105 ft | 499 kts | 76° |
| 2026-05-07 11:31 | 55.13646 | -159.02422 | 37098 ft | 499 kts | 76° |
| 2026-05-07 11:31 | 55.15234 | -158.90633 | 37107 ft | 499 kts | 76° |
| 2026-05-07 11:32 | 55.17603 | -158.72871 | 37099 ft | 499 kts | 77° |
| 2026-05-07 11:33 | 55.19165 | -158.61038 | 37095 ft | 499 kts | 77° |
| 2026-05-07 11:33 | 55.20718 | -158.49181 | 37115 ft | 500 kts | 77° |
| 2026-05-07 11:34 | 55.22259 | -158.37319 | 37098 ft | 500 kts | 77° |
| 2026-05-07 11:34 | 55.23789 | -158.25437 | 37100 ft | 500 kts | 77° |
| 2026-05-07 11:35 | 55.25310 | -158.13533 | 37113 ft | 500 kts | 77° |
| 2026-05-07 11:35 | 55.26808 | -158.01707 | 37101 ft | 500 kts | 78° |
| 2026-05-07 11:36 | 55.28306 | -157.89780 | 37111 ft | 501 kts | 78° |
| 2026-05-07 11:36 | 55.29791 | -157.77856 | 37101 ft | 501 kts | 78° |
| 2026-05-07 11:37 | 55.31269 | -157.65894 | 37097 ft | 501 kts | 78° |
| 2026-05-07 11:37 | 55.32732 | -157.53940 | 37105 ft | 501 kts | 78° |
| 2026-05-07 11:38 | 55.34187 | -157.41944 | 37110 ft | 502 kts | 78° |
| 2026-05-07 11:38 | 55.35631 | -157.29940 | 37105 ft | 502 kts | 78° |
| 2026-05-07 11:39 | 55.37062 | -157.17933 | 37096 ft | 503 kts | 79° |
| 2026-05-07 11:39 | 55.38486 | -157.05879 | 37109 ft | 503 kts | 79° |
| 2026-05-07 11:40 | 55.39895 | -156.93845 | 37114 ft | 503 kts | 79° |
| 2026-05-07 11:40 | 55.41296 | -156.81766 | 37099 ft | 503 kts | 79° |
| 2026-05-07 11:41 | 55.42684 | -156.69696 | 37117 ft | 504 kts | 79° |
| 2026-05-07 11:41 | 55.44062 | -156.57594 | 37100 ft | 504 kts | 79° |
| 2026-05-07 11:42 | 55.45418 | -156.45568 | 37105 ft | 504 kts | 79° |
| 2026-05-07 11:42 | 55.46781 | -156.33374 | 37111 ft | 505 kts | 80° |
| 2026-05-07 11:43 | 55.48127 | -156.21215 | 37114 ft | 505 kts | 80° |
| 2026-05-07 11:43 | 55.49461 | -156.09043 | 37098 ft | 505 kts | 80° |
| 2026-05-07 11:44 | 55.50772 | -155.96959 | 37091 ft | 505 kts | 80° |
| 2026-05-07 11:44 | 55.52081 | -155.84786 | 37111 ft | 505 kts | 80° |
| 2026-05-07 11:45 | 55.53369 | -155.72683 | 37096 ft | 506 kts | 81° |
| 2026-05-07 11:45 | 55.54665 | -155.60382 | 37107 ft | 506 kts | 81° |
| 2026-05-07 11:46 | 55.55940 | -155.48153 | 37106 ft | 506 kts | 81° |
| 2026-05-07 11:46 | 55.57203 | -155.35920 | 37104 ft | 507 kts | 81° |
| 2026-05-07 11:47 | 55.58457 | -155.23655 | 37105 ft | 507 kts | 81° |
| 2026-05-07 11:47 | 55.59697 | -155.11383 | 37104 ft | 507 kts | 81° |
| 2026-05-07 11:48 | 55.60924 | -154.99118 | 37104 ft | 508 kts | 81° |
| 2026-05-07 11:48 | 55.62145 | -154.86787 | 37107 ft | 508 kts | 81° |
| 2026-05-07 11:49 | 55.63351 | -154.74467 | 37108 ft | 508 kts | 82° |
| 2026-05-07 11:49 | 55.64546 | -154.62133 | 37111 ft | 509 kts | 82° |
| 2026-05-07 11:50 | 55.65728 | -154.49795 | 37110 ft | 509 kts | 82° |
| 2026-05-07 11:50 | 55.66899 | -154.37430 | 37112 ft | 509 kts | 82° |
| 2026-05-07 11:51 | 55.68053 | -154.25111 | 37112 ft | 510 kts | 82° |
| 2026-05-07 11:51 | 55.69199 | -154.12736 | 37112 ft | 510 kts | 82° |
| 2026-05-07 11:52 | 55.70338 | -154.00295 | 37117 ft | 510 kts | 82° |
| 2026-05-07 11:52 | 55.71461 | -153.87893 | 37116 ft | 510 kts | 83° |
| 2026-05-07 11:53 | 55.72575 | -153.75434 | 37114 ft | 511 kts | 83° |
| 2026-05-07 11:53 | 55.73674 | -153.62993 | 37117 ft | 511 kts | 83° |
| 2026-05-07 11:54 | 55.74764 | -153.50512 | 37117 ft | 511 kts | 83° |
| 2026-05-07 11:54 | 55.75839 | -153.38043 | 37118 ft | 512 kts | 83° |
| 2026-05-07 11:55 | 55.76903 | -153.25556 | 37120 ft | 512 kts | 83° |
| 2026-05-07 11:55 | 55.77955 | -153.13049 | 37121 ft | 512 kts | 83° |
| 2026-05-07 11:56 | 55.78997 | -153.00510 | 37124 ft | 512 kts | 83° |
| 2026-05-07 11:56 | 55.80025 | -152.87975 | 37123 ft | 513 kts | 84° |
| 2026-05-07 11:57 | 55.81041 | -152.75428 | 37123 ft | 513 kts | 84° |
| 2026-05-07 11:57 | 55.82045 | -152.62861 | 37122 ft | 513 kts | 84° |
| 2026-05-07 11:58 | 55.83037 | -152.50277 | 37125 ft | 514 kts | 84° |
| 2026-05-07 11:58 | 55.84016 | -152.37687 | 37123 ft | 514 kts | 84° |
| 2026-05-07 11:59 | 55.84982 | -152.25089 | 37127 ft | 514 kts | 84° |
| 2026-05-07 11:59 | 55.85935 | -152.12502 | 37128 ft | 514 kts | 84° |
| 2026-05-07 12:00 | 55.86879 | -151.99838 | 37127 ft | 515 kts | 85° |
| 2026-05-07 12:00 | 55.87807 | -151.87224 | 37127 ft | 515 kts | 85° |
| 2026-05-07 12:01 | 55.88726 | -151.74552 | 37131 ft | 515 kts | 85° |
| 2026-05-07 12:01 | 55.89628 | -151.61921 | 37127 ft | 515 kts | 85° |
| 2026-05-07 12:02 | 55.90521 | -151.49238 | 37126 ft | 515 kts | 85° |
| 2026-05-07 12:02 | 55.91399 | -151.36561 | 37129 ft | 516 kts | 85° |
| 2026-05-07 12:03 | 55.92265 | -151.23859 | 37133 ft | 516 kts | 85° |
| 2026-05-07 12:03 | 55.93113 | -151.11235 | 37131 ft | 516 kts | 86° |
| 2026-05-07 12:04 | 55.93958 | -150.98449 | 37134 ft | 516 kts | 86° |
| 2026-05-07 12:04 | 55.94781 | -150.85809 | 37135 ft | 516 kts | 86° |
| 2026-05-07 12:05 | 55.95595 | -150.73086 | 37132 ft | 517 kts | 86° |
| 2026-05-07 12:05 | 55.96397 | -150.60340 | 37134 ft | 517 kts | 86° |
| 2026-05-07 12:06 | 55.97187 | -150.47581 | 37137 ft | 517 kts | 86° |
| 2026-05-07 12:06 | 55.97962 | -150.34841 | 37136 ft | 517 kts | 86° |
| 2026-05-07 12:07 | 55.98729 | -150.22022 | 37141 ft | 518 kts | 87° |
| 2026-05-07 12:07 | 55.99476 | -150.09290 | 37141 ft | 518 kts | 87° |
| 2026-05-07 12:08 | 55.99760 | -149.96444 | 37411 ft | 513 kts | 98° |
| 2026-05-07 12:08 | 55.99473 | -149.90100 | 37646 ft | 512 kts | 98° |
| 2026-05-07 12:08 | 55.99124 | -149.83770 | 37850 ft | 511 kts | 99° |
| 2026-05-07 12:08 | 55.98743 | -149.77448 | 38035 ft | 511 kts | 99° |
| 2026-05-07 12:09 | 55.98351 | -149.71143 | 38227 ft | 511 kts | 99° |
| 2026-05-07 12:09 | 55.97955 | -149.64819 | 38400 ft | 511 kts | 99° |
| 2026-05-07 12:09 | 55.97561 | -149.58508 | 38583 ft | 511 kts | 99° |
| 2026-05-07 12:09 | 55.97172 | -149.52226 | 38761 ft | 511 kts | 99° |
| 2026-05-07 12:10 | 55.96779 | -149.45899 | 38879 ft | 512 kts | 99° |
| 2026-05-07 12:10 | 55.96388 | -149.39614 | 39010 ft | 512 kts | 99° |
| 2026-05-07 12:10 | 55.95993 | -149.33306 | 39108 ft | 512 kts | 99° |
| 2026-05-07 12:11 | 55.95187 | -149.20597 | 39148 ft | 517 kts | 99° |
| 2026-05-07 12:11 | 55.94364 | -149.07840 | 39149 ft | 516 kts | 100° |
| 2026-05-07 12:12 | 55.93537 | -148.95200 | 39152 ft | 516 kts | 100° |
| 2026-05-07 12:12 | 55.92691 | -148.82511 | 39154 ft | 516 kts | 100° |
| 2026-05-07 12:13 | 55.91829 | -148.69776 | 39154 ft | 517 kts | 100° |
| 2026-05-07 12:13 | 55.90955 | -148.57069 | 39156 ft | 517 kts | 100° |
| 2026-05-07 12:14 | 55.90066 | -148.44337 | 39155 ft | 517 kts | 101° |
| 2026-05-07 12:14 | 55.89317 | -148.33765 | 39159 ft | 518 kts | 101° |
| 2026-05-07 12:15 | 55.88404 | -148.21043 | 39162 ft | 518 kts | 101° |
| 2026-05-07 12:15 | 55.87476 | -148.08307 | 39160 ft | 519 kts | 101° |
| 2026-05-07 12:16 | 55.86535 | -147.95572 | 39160 ft | 519 kts | 101° |
| 2026-05-07 12:16 | 55.85581 | -147.82848 | 39164 ft | 519 kts | 101° |
| 2026-05-07 12:17 | 55.84609 | -147.70066 | 39166 ft | 520 kts | 101° |
| 2026-05-07 12:17 | 55.83627 | -147.57329 | 39176 ft | 520 kts | 102° |
| 2026-05-07 12:18 | 55.82630 | -147.44581 | 39166 ft | 521 kts | 102° |
| 2026-05-07 12:18 | 55.81617 | -147.31806 | 39169 ft | 521 kts | 102° |
| 2026-05-07 12:19 | 55.80591 | -147.19037 | 39178 ft | 522 kts | 102° |
| 2026-05-07 12:19 | 55.79553 | -147.06287 | 39164 ft | 523 kts | 102° |
| 2026-05-07 12:20 | 55.78496 | -146.93476 | 39175 ft | 523 kts | 102° |
| 2026-05-07 12:20 | 55.77426 | -146.80681 | 39175 ft | 524 kts | 102° |
| 2026-05-07 12:21 | 55.76345 | -146.67912 | 39174 ft | 524 kts | 102° |
| 2026-05-07 12:21 | 55.75246 | -146.55097 | 39174 ft | 524 kts | 103° |
| 2026-05-07 12:22 | 55.74135 | -146.42303 | 39177 ft | 525 kts | 103° |
| 2026-05-07 12:22 | 55.73009 | -146.29508 | 39177 ft | 525 kts | 103° |
| 2026-05-07 12:23 | 55.71869 | -146.16701 | 39178 ft | 526 kts | 103° |
| 2026-05-07 12:23 | 55.70714 | -146.03884 | 39180 ft | 526 kts | 103° |
| 2026-05-07 12:24 | 55.69548 | -145.91102 | 39181 ft | 526 kts | 103° |
| 2026-05-07 12:24 | 55.68367 | -145.78305 | 39185 ft | 527 kts | 103° |
| 2026-05-07 12:25 | 55.67168 | -145.65467 | 39185 ft | 527 kts | 103° |
| 2026-05-07 12:25 | 55.65958 | -145.52668 | 39188 ft | 527 kts | 104° |
| 2026-05-07 12:26 | 55.64731 | -145.39835 | 39186 ft | 528 kts | 104° |
| 2026-05-07 12:26 | 55.63495 | -145.27052 | 39187 ft | 528 kts | 104° |
| 2026-05-07 12:27 | 55.62239 | -145.14211 | 39187 ft | 529 kts | 104° |
| 2026-05-07 12:27 | 55.60972 | -145.01399 | 39192 ft | 529 kts | 104° |
| 2026-05-07 12:28 | 55.59690 | -144.88590 | 39192 ft | 529 kts | 104° |
| 2026-05-07 12:28 | 55.58393 | -144.75768 | 39191 ft | 529 kts | 104° |
| 2026-05-07 12:29 | 55.57094 | -144.63055 | 39196 ft | 530 kts | 104° |
| 2026-05-07 12:29 | 55.55772 | -144.50269 | 39196 ft | 530 kts | 105° |
| 2026-05-07 12:30 | 55.54434 | -144.37463 | 39197 ft | 530 kts | 105° |
| 2026-05-07 12:30 | 55.53080 | -144.24638 | 39199 ft | 531 kts | 105° |
| 2026-05-07 12:31 | 55.51716 | -144.11846 | 39203 ft | 531 kts | 105° |
| 2026-05-07 12:31 | 55.50335 | -143.99039 | 39205 ft | 532 kts | 105° |
| 2026-05-07 12:32 | 55.48938 | -143.86217 | 39204 ft | 532 kts | 105° |
| 2026-05-07 12:32 | 55.47530 | -143.73419 | 39203 ft | 532 kts | 106° |
| 2026-05-07 12:33 | 55.45387 | -143.54193 | 39206 ft | 533 kts | 106° |
| 2026-05-07 12:33 | 55.43940 | -143.41371 | 39213 ft | 534 kts | 106° |
| 2026-05-07 12:34 | 55.42479 | -143.28559 | 39213 ft | 534 kts | 106° |
| 2026-05-07 12:34 | 55.41003 | -143.15732 | 39212 ft | 535 kts | 107° |
| 2026-05-07 12:35 | 55.39513 | -143.02922 | 39216 ft | 535 kts | 107° |
| 2026-05-07 12:35 | 55.38005 | -142.90076 | 39222 ft | 536 kts | 107° |
| 2026-05-07 12:36 | 55.36494 | -142.77328 | 39215 ft | 536 kts | 107° |
| 2026-05-07 12:36 | 55.34952 | -142.64440 | 39213 ft | 536 kts | 107° |
| 2026-05-07 12:37 | 55.33404 | -142.51622 | 39224 ft | 536 kts | 107° |
| 2026-05-07 12:37 | 55.31850 | -142.38877 | 39224 ft | 537 kts | 108° |
| 2026-05-07 12:38 | 55.30274 | -142.26080 | 39226 ft | 537 kts | 108° |
| 2026-05-07 12:38 | 55.28685 | -142.13290 | 39231 ft | 537 kts | 108° |
| 2026-05-07 12:39 | 55.27078 | -142.00465 | 39235 ft | 537 kts | 108° |
| 2026-05-07 12:39 | 55.25461 | -141.87685 | 39234 ft | 537 kts | 108° |
| 2026-05-07 12:40 | 55.23830 | -141.74914 | 39238 ft | 537 kts | 108° |
| 2026-05-07 12:40 | 55.22185 | -141.62146 | 39243 ft | 537 kts | 108° |
| 2026-05-07 12:41 | 55.20529 | -141.49402 | 39238 ft | 537 kts | 108° |
| 2026-05-07 12:41 | 55.18855 | -141.36637 | 39242 ft | 538 kts | 109° |
| 2026-05-07 12:42 | 55.17167 | -141.23877 | 39244 ft | 538 kts | 109° |
| 2026-05-07 12:42 | 55.15468 | -141.11141 | 39248 ft | 538 kts | 109° |
| 2026-05-07 12:43 | 55.13758 | -140.98439 | 39245 ft | 538 kts | 109° |
| 2026-05-07 12:43 | 55.12033 | -140.85729 | 39252 ft | 538 kts | 109° |
| 2026-05-07 12:44 | 55.10292 | -140.73018 | 39252 ft | 538 kts | 109° |
| 2026-05-07 12:44 | 55.08538 | -140.60310 | 39252 ft | 538 kts | 109° |
| 2026-05-07 12:45 | 55.06768 | -140.47599 | 39258 ft | 539 kts | 109° |
| 2026-05-07 12:45 | 55.04988 | -140.34921 | 39262 ft | 539 kts | 109° |
| 2026-05-07 12:46 | 55.03195 | -140.22257 | 39263 ft | 539 kts | 110° |
| 2026-05-07 12:46 | 55.01382 | -140.09556 | 39261 ft | 539 kts | 110° |
| 2026-05-07 12:47 | 54.99294 | -139.97063 | 39265 ft | 533 kts | 117° |
| 2026-05-07 12:47 | 54.96630 | -139.85035 | 39267 ft | 532 kts | 118° |
| 2026-05-07 12:48 | 54.93872 | -139.73118 | 39269 ft | 532 kts | 118° |
| 2026-05-07 12:48 | 54.91094 | -139.61194 | 39271 ft | 532 kts | 118° |
| 2026-05-07 12:49 | 54.88332 | -139.49351 | 39272 ft | 532 kts | 118° |
| 2026-05-07 12:49 | 54.85543 | -139.37427 | 39272 ft | 532 kts | 118° |
| 2026-05-07 12:50 | 54.82751 | -139.25549 | 39274 ft | 533 kts | 118° |
| 2026-05-07 12:50 | 54.79944 | -139.13677 | 39278 ft | 533 kts | 118° |
| 2026-05-07 12:51 | 54.77114 | -139.01777 | 39279 ft | 533 kts | 118° |
| 2026-05-07 12:51 | 54.74284 | -138.89943 | 39281 ft | 533 kts | 118° |
| 2026-05-07 12:52 | 54.71433 | -138.78084 | 39280 ft | 533 kts | 119° |
| 2026-05-07 12:52 | 54.68567 | -138.66229 | 39279 ft | 534 kts | 119° |
| 2026-05-07 12:53 | 54.65699 | -138.54427 | 39284 ft | 534 kts | 119° |
| 2026-05-07 12:53 | 54.62811 | -138.42608 | 39287 ft | 534 kts | 119° |
| 2026-05-07 12:54 | 54.59912 | -138.30810 | 39286 ft | 534 kts | 119° |
| 2026-05-07 12:54 | 54.57005 | -138.19041 | 39288 ft | 534 kts | 119° |
| 2026-05-07 12:55 | 54.54080 | -138.07265 | 39287 ft | 534 kts | 119° |
| 2026-05-07 12:55 | 54.51169 | -137.95606 | 39297 ft | 534 kts | 119° |
| 2026-05-07 12:56 | 54.48223 | -137.83870 | 39293 ft | 534 kts | 119° |
| 2026-05-07 12:56 | 54.45263 | -137.72141 | 39292 ft | 534 kts | 119° |
| 2026-05-07 12:57 | 54.42293 | -137.60433 | 39291 ft | 534 kts | 119° |
| 2026-05-07 12:57 | 54.39314 | -137.48748 | 39293 ft | 534 kts | 119° |
| 2026-05-07 12:58 | 54.36322 | -137.37074 | 39294 ft | 534 kts | 120° |
| 2026-05-07 12:58 | 54.33319 | -137.25417 | 39296 ft | 535 kts | 120° |
| 2026-05-07 12:59 | 54.30308 | -137.13786 | 39296 ft | 535 kts | 120° |
| 2026-05-07 12:59 | 54.27283 | -137.02165 | 39299 ft | 535 kts | 120° |
| 2026-05-07 13:00 | 54.24247 | -136.90559 | 39301 ft | 534 kts | 120° |
| 2026-05-07 13:00 | 54.21200 | -136.78977 | 39295 ft | 534 kts | 120° |
| 2026-05-07 13:01 | 54.18147 | -136.67433 | 39295 ft | 534 kts | 120° |
| 2026-05-07 13:01 | 54.15599 | -136.57842 | 39293 ft | 534 kts | 120° |
| 2026-05-07 13:02 | 54.12521 | -136.46306 | 39305 ft | 534 kts | 120° |
| 2026-05-07 13:02 | 54.09439 | -136.34815 | 39302 ft | 533 kts | 120° |
| 2026-05-07 13:03 | 54.06346 | -136.23344 | 39300 ft | 533 kts | 120° |
| 2026-05-07 13:03 | 54.03239 | -136.11875 | 39299 ft | 533 kts | 120° |
| 2026-05-07 13:04 | 53.99618 | -135.98581 | 39303 ft | 533 kts | 120° |
| 2026-05-07 13:04 | 53.96787 | -135.89240 | 39307 ft | 529 kts | 125° |
| 2026-05-07 13:05 | 53.93155 | -135.78407 | 39303 ft | 528 kts | 126° |
| 2026-05-07 13:05 | 53.89527 | -135.67571 | 39305 ft | 529 kts | 125° |
| 2026-05-07 13:06 | 53.85948 | -135.56697 | 39298 ft | 529 kts | 125° |
| 2026-05-07 13:06 | 53.82377 | -135.45801 | 39300 ft | 529 kts | 125° |
| 2026-05-07 13:07 | 53.78827 | -135.35011 | 39302 ft | 529 kts | 125° |
| 2026-05-07 13:07 | 53.75236 | -135.24154 | 39301 ft | 529 kts | 125° |
| 2026-05-07 13:08 | 53.71637 | -135.13326 | 39305 ft | 529 kts | 125° |
| 2026-05-07 13:08 | 53.68028 | -135.02517 | 39303 ft | 529 kts | 125° |
| 2026-05-07 13:09 | 53.64403 | -134.91709 | 39306 ft | 529 kts | 125° |
| 2026-05-07 13:09 | 53.60779 | -134.80951 | 39304 ft | 529 kts | 125° |
| 2026-05-07 13:10 | 53.57128 | -134.70159 | 39306 ft | 532 kts | 125° |
| 2026-05-07 13:10 | 53.53443 | -134.59326 | 39302 ft | 537 kts | 125° |
| 2026-05-07 13:11 | 53.49699 | -134.48359 | 39303 ft | 541 kts | 125° |
| 2026-05-07 13:11 | 53.45937 | -134.37380 | 39299 ft | 543 kts | 125° |
| 2026-05-07 13:12 | 53.42160 | -134.26405 | 39301 ft | 544 kts | 125° |
| 2026-05-07 13:12 | 53.38369 | -134.15442 | 39302 ft | 544 kts | 125° |
| 2026-05-07 13:13 | 53.34557 | -134.04467 | 39299 ft | 544 kts | 125° |
| 2026-05-07 13:13 | 53.30749 | -133.93555 | 39299 ft | 544 kts | 125° |
| 2026-05-07 13:14 | 53.26924 | -133.82642 | 39303 ft | 544 kts | 125° |
| 2026-05-07 13:14 | 53.23092 | -133.71758 | 39299 ft | 544 kts | 125° |
| 2026-05-07 13:15 | 53.19250 | -133.60892 | 39300 ft | 544 kts | 126° |
| 2026-05-07 13:15 | 53.15399 | -133.50049 | 39297 ft | 544 kts | 126° |
| 2026-05-07 13:16 | 53.11542 | -133.39233 | 39298 ft | 543 kts | 126° |
| 2026-05-07 13:16 | 53.07669 | -133.28422 | 39298 ft | 543 kts | 126° |
| 2026-05-07 13:17 | 53.03795 | -133.17654 | 39297 ft | 543 kts | 126° |
| 2026-05-07 13:17 | 52.99917 | -133.06920 | 39293 ft | 543 kts | 126° |
| 2026-05-07 13:18 | 52.96018 | -132.96175 | 39290 ft | 543 kts | 126° |
| 2026-05-07 13:18 | 52.92118 | -132.85474 | 39293 ft | 542 kts | 126° |
| 2026-05-07 13:19 | 52.88235 | -132.74863 | 39292 ft | 542 kts | 126° |
| 2026-05-07 13:19 | 52.84310 | -132.64185 | 39287 ft | 542 kts | 126° |
| 2026-05-07 13:20 | 52.80384 | -132.53548 | 39283 ft | 542 kts | 126° |
| 2026-05-07 13:20 | 52.76440 | -132.42910 | 39288 ft | 542 kts | 126° |
| 2026-05-07 13:21 | 52.72490 | -132.32297 | 39283 ft | 542 kts | 126° |
| 2026-05-07 13:21 | 52.68536 | -132.21719 | 39289 ft | 542 kts | 126° |
| 2026-05-07 13:22 | 52.64568 | -132.11148 | 39293 ft | 543 kts | 126° |
| 2026-05-07 13:22 | 52.60593 | -132.00603 | 39291 ft | 543 kts | 126° |
| 2026-05-07 13:23 | 52.56609 | -131.90077 | 39285 ft | 543 kts | 126° |
| 2026-05-07 13:23 | 52.52600 | -131.79528 | 39285 ft | 543 kts | 126° |
| 2026-05-07 13:24 | 52.48591 | -131.69025 | 39289 ft | 543 kts | 126° |
| 2026-05-07 13:24 | 52.44577 | -131.58552 | 39287 ft | 543 kts | 126° |
| 2026-05-07 13:25 | 52.40546 | -131.48077 | 39284 ft | 543 kts | 126° |
| 2026-05-07 13:25 | 52.36523 | -131.37665 | 39283 ft | 542 kts | 126° |
| 2026-05-07 13:26 | 52.32470 | -131.27218 | 39277 ft | 543 kts | 126° |
| 2026-05-07 13:26 | 52.28416 | -131.16815 | 39280 ft | 543 kts | 126° |
| 2026-05-07 13:27 | 52.24352 | -131.06427 | 39271 ft | 543 kts | 126° |
| 2026-05-07 13:27 | 52.20280 | -130.96062 | 39267 ft | 543 kts | 126° |
| 2026-05-07 13:28 | 52.16191 | -130.85695 | 39268 ft | 544 kts | 126° |
| 2026-05-07 13:28 | 52.12089 | -130.75335 | 39268 ft | 544 kts | 126° |
| 2026-05-07 13:29 | 52.07984 | -130.65009 | 39266 ft | 544 kts | 126° |
| 2026-05-07 13:29 | 52.03879 | -130.54725 | 39258 ft | 538 kts | 127° |
| 2026-05-07 13:30 | 51.99831 | -130.44613 | 39264 ft | 531 kts | 127° |
| 2026-05-07 13:30 | 51.95805 | -130.34610 | 39261 ft | 530 kts | 127° |
| 2026-05-07 13:31 | 51.91762 | -130.24609 | 39256 ft | 531 kts | 127° |
| 2026-05-07 13:31 | 51.87706 | -130.14610 | 39253 ft | 531 kts | 127° |
| 2026-05-07 13:32 | 51.83667 | -130.04689 | 39251 ft | 531 kts | 127° |
| 2026-05-07 13:32 | 51.79572 | -129.94668 | 39253 ft | 531 kts | 127° |
| 2026-05-07 13:33 | 51.75512 | -129.84772 | 39249 ft | 532 kts | 127° |
| 2026-05-07 13:33 | 51.71417 | -129.74827 | 39247 ft | 532 kts | 127° |
| 2026-05-07 13:34 | 51.65260 | -129.59949 | 39244 ft | 532 kts | 127° |
| 2026-05-07 13:35 | 51.61140 | -129.50042 | 39242 ft | 532 kts | 127° |
| 2026-05-07 13:35 | 51.57014 | -129.40158 | 39241 ft | 532 kts | 127° |
| 2026-05-07 13:36 | 51.52886 | -129.30308 | 39242 ft | 532 kts | 127° |
| 2026-05-07 13:36 | 51.48743 | -129.20457 | 39252 ft | 532 kts | 127° |
| 2026-05-07 13:37 | 51.44597 | -129.10639 | 39233 ft | 532 kts | 127° |
| 2026-05-07 13:37 | 51.40432 | -129.00810 | 39227 ft | 532 kts | 127° |
| 2026-05-07 13:38 | 51.36258 | -128.91000 | 39239 ft | 533 kts | 127° |
| 2026-05-07 13:38 | 51.32090 | -128.81241 | 39236 ft | 533 kts | 127° |
| 2026-05-07 13:39 | 51.27900 | -128.71465 | 39229 ft | 533 kts | 127° |
| 2026-05-07 13:39 | 51.23697 | -128.61698 | 39224 ft | 533 kts | 127° |
| 2026-05-07 13:40 | 51.19479 | -128.51931 | 39225 ft | 534 kts | 127° |
| 2026-05-07 13:40 | 51.15264 | -128.42207 | 39230 ft | 534 kts | 128° |
| 2026-05-07 13:41 | 51.11037 | -128.32494 | 39223 ft | 534 kts | 128° |
| 2026-05-07 13:41 | 51.06793 | -128.22776 | 39224 ft | 534 kts | 128° |
| 2026-05-07 13:42 | 51.02553 | -128.13104 | 39226 ft | 534 kts | 128° |
| 2026-05-07 13:42 | 50.98287 | -128.03411 | 39225 ft | 534 kts | 128° |
| 2026-05-07 13:43 | 50.94030 | -127.93771 | 39227 ft | 534 kts | 128° |
| 2026-05-07 13:43 | 50.89759 | -127.84137 | 39229 ft | 534 kts | 128° |
| 2026-05-07 13:44 | 50.85500 | -127.74565 | 39229 ft | 535 kts | 128° |
| 2026-05-07 13:44 | 50.81211 | -127.64960 | 39231 ft | 535 kts | 128° |
| 2026-05-07 13:45 | 50.76909 | -127.55360 | 39229 ft | 535 kts | 128° |
| 2026-05-07 13:45 | 50.72605 | -127.45792 | 39228 ft | 535 kts | 128° |
| 2026-05-07 13:46 | 50.68288 | -127.36233 | 39227 ft | 535 kts | 128° |
| 2026-05-07 13:46 | 50.63907 | -127.26757 | 39229 ft | 535 kts | 130° |
| 2026-05-07 13:47 | 50.59456 | -127.17366 | 39233 ft | 535 kts | 130° |
| 2026-05-07 13:47 | 50.54998 | -127.07973 | 39232 ft | 535 kts | 130° |
| 2026-05-07 13:48 | 50.51307 | -127.00189 | 39235 ft | 535 kts | 130° |
| 2026-05-07 13:48 | 50.46107 | -126.89244 | 39238 ft | 535 kts | 130° |
| 2026-05-07 13:49 | 50.42365 | -126.81391 | 39244 ft | 535 kts | 130° |
| 2026-05-07 13:49 | 50.37939 | -126.72140 | 39244 ft | 536 kts | 130° |
| 2026-05-07 13:50 | 50.33462 | -126.62814 | 39244 ft | 535 kts | 130° |
| 2026-05-07 13:50 | 50.28983 | -126.53511 | 39240 ft | 536 kts | 130° |
| 2026-05-07 13:51 | 50.24480 | -126.44200 | 39241 ft | 536 kts | 130° |
| 2026-05-07 13:51 | 50.19975 | -126.34920 | 39241 ft | 536 kts | 130° |
| 2026-05-07 13:52 | 50.15467 | -126.25662 | 39239 ft | 536 kts | 130° |
| 2026-05-07 13:52 | 50.10949 | -126.16414 | 39230 ft | 536 kts | 130° |
| 2026-05-07 13:53 | 50.06429 | -126.07197 | 39224 ft | 536 kts | 130° |
| 2026-05-07 13:53 | 50.01894 | -125.97981 | 39215 ft | 536 kts | 130° |
| 2026-05-07 13:54 | 49.97348 | -125.88774 | 39216 ft | 537 kts | 130° |
| 2026-05-07 13:54 | 49.92788 | -125.79571 | 39202 ft | 536 kts | 130° |
| 2026-05-07 13:55 | 49.88423 | -125.70795 | 39202 ft | 537 kts | 130° |
| 2026-05-07 13:55 | 49.83852 | -125.61633 | 39207 ft | 538 kts | 130° |
| 2026-05-07 13:56 | 49.79273 | -125.52483 | 39201 ft | 538 kts | 130° |
| 2026-05-07 13:56 | 49.74684 | -125.43352 | 39204 ft | 538 kts | 130° |
| 2026-05-07 13:57 | 49.70084 | -125.34226 | 39200 ft | 539 kts | 131° |
| 2026-05-07 13:57 | 49.65472 | -125.25110 | 39207 ft | 539 kts | 131° |
| 2026-05-07 13:58 | 49.60849 | -125.16003 | 39212 ft | 539 kts | 131° |
| 2026-05-07 13:58 | 49.56212 | -125.06909 | 39216 ft | 540 kts | 131° |
| 2026-05-07 13:59 | 49.51564 | -124.97836 | 39215 ft | 540 kts | 131° |
| 2026-05-07 13:59 | 49.46908 | -124.88779 | 39212 ft | 540 kts | 131° |
| 2026-05-07 14:00 | 49.42245 | -124.79741 | 39211 ft | 540 kts | 131° |
| 2026-05-07 14:00 | 49.37590 | -124.70746 | 38888 ft | 534 kts | 131° |
| 2026-05-07 14:00 | 49.35277 | -124.66287 | 38235 ft | 534 kts | 131° |
| 2026-05-07 14:01 | 49.32974 | -124.61859 | 37325 ft | 527 kts | 131° |
| 2026-05-07 14:01 | 49.30674 | -124.57445 | 36413 ft | 532 kts | 131° |
| 2026-05-07 14:01 | 49.28359 | -124.53012 | 35753 ft | 533 kts | 130° |
| 2026-05-07 14:01 | 49.26077 | -124.48646 | 35188 ft | 531 kts | 130° |
| 2026-05-07 14:02 | 49.23778 | -124.44252 | 34719 ft | 528 kts | 130° |
| 2026-05-07 14:02 | 49.21489 | -124.39882 | 34226 ft | 524 kts | 130° |
| 2026-05-07 14:02 | 49.19213 | -124.35544 | 33724 ft | 521 kts | 130° |
| 2026-05-07 14:02 | 49.16956 | -124.31250 | 33245 ft | 516 kts | 130° |
| 2026-05-07 14:03 | 49.14717 | -124.26999 | 32818 ft | 512 kts | 130° |
| 2026-05-07 14:03 | 49.12490 | -124.22778 | 32411 ft | 507 kts | 130° |
| 2026-05-07 14:03 | 49.10288 | -124.18610 | 31958 ft | 503 kts | 130° |
| 2026-05-07 14:03 | 49.08099 | -124.14474 | 31544 ft | 499 kts | 130° |
| 2026-05-07 14:04 | 49.05926 | -124.10375 | 31142 ft | 495 kts | 130° |
| 2026-05-07 14:04 | 49.03772 | -124.06320 | 30741 ft | 491 kts | 130° |
| 2026-05-07 14:04 | 49.01635 | -124.02299 | 30324 ft | 487 kts | 130° |
| 2026-05-07 14:04 | 48.99513 | -123.98314 | 29854 ft | 483 kts | 130° |
| 2026-05-07 14:05 | 48.97401 | -123.94353 | 29398 ft | 479 kts | 130° |
| 2026-05-07 14:05 | 48.95311 | -123.90438 | 28950 ft | 475 kts | 130° |
| 2026-05-07 14:05 | 48.93234 | -123.86552 | 28501 ft | 471 kts | 130° |
| 2026-05-07 14:05 | 48.91174 | -123.82705 | 28079 ft | 467 kts | 130° |
| 2026-05-07 14:06 | 48.89130 | -123.78894 | 27653 ft | 463 kts | 130° |
| 2026-05-07 14:06 | 48.87105 | -123.75120 | 27221 ft | 460 kts | 130° |
| 2026-05-07 14:06 | 48.85088 | -123.71371 | 26758 ft | 457 kts | 130° |
| 2026-05-07 14:06 | 48.83084 | -123.67650 | 26345 ft | 453 kts | 130° |
| 2026-05-07 14:07 | 48.81100 | -123.63971 | 25949 ft | 449 kts | 129° |
| 2026-05-07 14:07 | 48.79128 | -123.60320 | 25540 ft | 446 kts | 129° |
| 2026-05-07 14:07 | 48.77196 | -123.56746 | 25150 ft | 442 kts | 129° |
| 2026-05-07 14:07 | 48.75252 | -123.53157 | 24742 ft | 437 kts | 129° |
| 2026-05-07 14:08 | 48.73302 | -123.49674 | 24071 ft | 433 kts | 134° |
| 2026-05-07 14:08 | 48.70941 | -123.46776 | 23625 ft | 429 kts | 148° |
| 2026-05-07 14:08 | 48.68461 | -123.44412 | 23171 ft | 425 kts | 149° |
| 2026-05-07 14:08 | 48.65943 | -123.42082 | 22697 ft | 423 kts | 149° |
| 2026-05-07 14:09 | 48.63449 | -123.39773 | 22244 ft | 419 kts | 149° |
| 2026-05-07 14:09 | 48.60973 | -123.37474 | 21789 ft | 416 kts | 149° |
| 2026-05-07 14:09 | 48.58518 | -123.35193 | 21339 ft | 413 kts | 149° |
| 2026-05-07 14:09 | 48.56080 | -123.32927 | 20901 ft | 410 kts | 149° |
| 2026-05-07 14:10 | 48.53659 | -123.30679 | 20464 ft | 407 kts | 149° |
| 2026-05-07 14:10 | 48.51258 | -123.28450 | 20040 ft | 404 kts | 149° |
| 2026-05-07 14:10 | 48.48872 | -123.26238 | 19615 ft | 401 kts | 149° |
| 2026-05-07 14:10 | 48.46505 | -123.24045 | 19186 ft | 399 kts | 149° |
| 2026-05-07 14:11 | 48.44148 | -123.21863 | 18770 ft | 396 kts | 149° |
| 2026-05-07 14:11 | 48.41814 | -123.19706 | 18352 ft | 393 kts | 149° |
| 2026-05-07 14:11 | 48.39488 | -123.17558 | 17873 ft | 390 kts | 149° |
| 2026-05-07 14:11 | 48.37186 | -123.15434 | 17420 ft | 387 kts | 148° |
| 2026-05-07 14:12 | 48.34902 | -123.13330 | 16969 ft | 384 kts | 148° |
| 2026-05-07 14:12 | 48.32640 | -123.11247 | 16596 ft | 379 kts | 148° |
| 2026-05-07 14:12 | 48.30403 | -123.09192 | 16174 ft | 375 kts | 148° |
| 2026-05-07 14:12 | 48.28186 | -123.07158 | 15742 ft | 372 kts | 148° |
| 2026-05-07 14:13 | 48.25978 | -123.05135 | 15321 ft | 369 kts | 148° |
| 2026-05-07 14:13 | 48.23794 | -123.03136 | 14900 ft | 367 kts | 148° |
| 2026-05-07 14:13 | 48.21622 | -123.01149 | 14499 ft | 364 kts | 148° |
| 2026-05-07 14:13 | 48.19472 | -122.99185 | 14102 ft | 361 kts | 148° |
| 2026-05-07 14:14 | 48.17337 | -122.97235 | 13658 ft | 358 kts | 148° |
| 2026-05-07 14:14 | 48.15220 | -122.95304 | 13210 ft | 355 kts | 148° |
| 2026-05-07 14:14 | 48.13121 | -122.93390 | 12762 ft | 352 kts | 148° |
| 2026-05-07 14:14 | 48.11036 | -122.91493 | 12330 ft | 349 kts | 148° |
| 2026-05-07 14:15 | 48.08975 | -122.89618 | 12030 ft | 345 kts | 148° |
| 2026-05-07 14:15 | 48.06920 | -122.87751 | 11965 ft | 346 kts | 148° |
| 2026-05-07 14:15 | 48.04892 | -122.85868 | 11957 ft | 339 kts | 145° |
| 2026-05-07 14:15 | 48.03230 | -122.83492 | 11974 ft | 322 kts | 125° |
| 2026-05-07 14:16 | 48.02007 | -122.80786 | 11967 ft | 309 kts | 121° |
| 2026-05-07 14:16 | 48.00863 | -122.78090 | 11860 ft | 304 kts | 121° |
| 2026-05-07 14:16 | 47.99730 | -122.75429 | 11451 ft | 304 kts | 121° |
| 2026-05-07 14:16 | 47.98632 | -122.72733 | 11051 ft | 303 kts | 116° |
| 2026-05-07 14:17 | 47.97824 | -122.69853 | 10733 ft | 300 kts | 109° |
| 2026-05-07 14:17 | 47.97130 | -122.66932 | 10385 ft | 298 kts | 108° |
| 2026-05-07 14:17 | 47.96457 | -122.64066 | 10049 ft | 295 kts | 108° |
| 2026-05-07 14:17 | 47.95783 | -122.61228 | 9887 ft | 286 kts | 108° |
| 2026-05-07 14:18 | 47.95128 | -122.58483 | 9741 ft | 276 kts | 108° |
| 2026-05-07 14:18 | 47.94489 | -122.55819 | 9491 ft | 271 kts | 108° |
| 2026-05-07 14:18 | 47.93858 | -122.53189 | 9172 ft | 269 kts | 108° |
| 2026-05-07 14:18 | 47.93226 | -122.50570 | 8842 ft | 267 kts | 109° |
| 2026-05-07 14:19 | 47.92387 | -122.48111 | 8480 ft | 268 kts | 127° |
| 2026-05-07 14:19 | 47.90936 | -122.46419 | 8141 ft | 267 kts | 156° |
| 2026-05-07 14:19 | 47.89184 | -122.45523 | 7816 ft | 266 kts | 164° |
| 2026-05-07 14:19 | 47.87407 | -122.44774 | 7525 ft | 263 kts | 164° |
| 2026-05-07 14:20 | 47.85678 | -122.44041 | 7391 ft | 254 kts | 163° |
| 2026-05-07 14:20 | 47.84010 | -122.43322 | 7237 ft | 246 kts | 163° |
| 2026-05-07 14:20 | 47.82379 | -122.42611 | 6984 ft | 243 kts | 163° |
| 2026-05-07 14:20 | 47.80761 | -122.41901 | 6712 ft | 242 kts | 163° |
| 2026-05-07 14:21 | 47.79148 | -122.41191 | 6417 ft | 241 kts | 163° |
| 2026-05-07 14:21 | 47.77548 | -122.40479 | 6130 ft | 239 kts | 162° |
| 2026-05-07 14:21 | 47.76028 | -122.39525 | 5850 ft | 236 kts | 152° |
| 2026-05-07 14:21 | 47.74576 | -122.38391 | 5565 ft | 234 kts | 150° |
| 2026-05-07 14:22 | 47.73146 | -122.37245 | 5306 ft | 233 kts | 150° |
| 2026-05-07 14:22 | 47.71738 | -122.36121 | 5046 ft | 231 kts | 150° |
| 2026-05-07 14:22 | 47.70330 | -122.35000 | 4770 ft | 229 kts | 150° |
| 2026-05-07 14:22 | 47.68930 | -122.33889 | 4493 ft | 227 kts | 150° |
| 2026-05-07 14:23 | 47.67545 | -122.32792 | 4244 ft | 225 kts | 150° |
| 2026-05-07 14:23 | 47.66170 | -122.31705 | 4030 ft | 222 kts | 150° |
| 2026-05-07 14:23 | 47.64757 | -122.30782 | 3994 ft | 224 kts | 164° |
| 2026-05-07 14:23 | 47.63204 | -122.30519 | 3866 ft | 225 kts | 180° |
| 2026-05-07 14:24 | 47.61640 | -122.30596 | 3582 ft | 225 kts | 181° |
| 2026-05-07 14:24 | 47.60096 | -122.30663 | 3253 ft | 226 kts | 179° |
| 2026-05-07 14:24 | 47.58518 | -122.30666 | 2932 ft | 227 kts | 179° |
| 2026-05-07 14:24 | 47.56942 | -122.30676 | 2611 ft | 226 kts | 180° |
| 2026-05-07 14:25 | 47.55371 | -122.30696 | 2305 ft | 224 kts | 180° |
| 2026-05-07 14:25 | 47.53886 | -122.30708 | 2029 ft | 201 kts | 180° |
| 2026-05-07 14:25 | 47.52569 | -122.30722 | 1758 ft | 179 kts | 180° |
| 2026-05-07 14:25 | 47.51381 | -122.30733 | 1506 ft | 164 kts | 181° |
| 2026-05-07 14:26 | 47.50297 | -122.30742 | 1309 ft | 152 kts | 180° |
| 2026-05-07 14:26 | 47.49277 | -122.30752 | 1078 ft | 144 kts | 180° |
| 2026-05-07 14:26 | 47.48298 | -122.30760 | 853 ft | 138 kts | 181° |
| 2026-05-07 14:26 | 47.47347 | -122.30768 | 676 ft | 136 kts | 181° |
| 2026-05-07 14:27 | 47.46401 | -122.30776 | 489 ft | 136 kts | 181° |
| 2026-05-07 14:27 | 47.45448 | -122.30785 | 392 ft | 132 kts | 181° |
| 2026-05-07 14:27 | 47.44783 | -122.30794 | 390 ft | 38 kts | 180° |
| 2026-05-07 14:27 | 47.44628 | -122.30795 | 390 ft | 11 kts | 179° |
| 2026-05-07 14:28 | 47.44617 | -122.30792 | 390 ft | 6 kts | 170° |
| 2026-05-07 14:28 | 47.44591 | -122.30706 | 390 ft | 16 kts | 92° |
| 2026-05-07 14:28 | 47.44651 | -122.30608 | 390 ft | 9 kts | 359° |
| 2026-05-07 14:28 | 47.44735 | -122.30594 | 390 ft | 15 kts | 38° |
| 2026-05-07 14:29 | 47.44824 | -122.30464 | 390 ft | 19 kts | 43° |
| 2026-05-07 14:29 | 47.44855 | -122.30419 | 390 ft | 0 kts | 43° |